Wetterdaten: aktuell Mittwoch, 17.10.2018 15:58
Datum Zeit Temp. 2m Temp. 5cm Temp. -10cm Feuchte 2m Luftdruck Regen Wind Richtung Richtung Taupunkt Windchill Windben
17.10.2018 15:58 18,3 C 19,8 C 13,4 C 57 % 1021,6 hPa 0,0 l/m 7,4 km/h (2 Bft) NO 45 9,6 C 17,8 C 21,0 km/h (4 Bft)
17.10.2018 15:56 18,3 C 18,9 C 13,4 C 57 % 1021,6 hPa 0,0 l/m 7,9 km/h (2 Bft) NW 315 9,6 C 17,6 C 21,0 km/h (4 Bft)
17.10.2018 15:54 18,3 C 20,6 C 13,4 C 56 % 1021,6 hPa 0,0 l/m 8,4 km/h (2 Bft) O-NO 67 9,4 C 17,4 C 13,5 km/h (3 Bft)
17.10.2018 15:52 18,3 C 20,3 C 13,3 C 57 % 1021,6 hPa 0,0 l/m 8,0 km/h (2 Bft) O-NO 67 9,6 C 17,6 C 10,0 km/h (2 Bft)
17.10.2018 15:50 18,2 C 18,7 C 13,3 C 57 % 1021,8 hPa 0,0 l/m 8,2 km/h (2 Bft) O-SO 112 9,5 C 17,4 C 13,1 km/h (3 Bft)
17.10.2018 15:48 18,2 C 19,1 C 13,3 C 57 % 1021,8 hPa 0,0 l/m 8,2 km/h (2 Bft) SO 135 9,5 C 17,4 C 13,1 km/h (3 Bft)
17.10.2018 15:46 18,1 C 18,7 C 13,3 C 56 % 1021,8 hPa 0,0 l/m 7,1 km/h (2 Bft) SO 135 9,2 C 17,8 C 15,3 km/h (3 Bft)
17.10.2018 15:44 18,1 C 18,6 C 13,4 C 56 % 1021,8 hPa 0,0 l/m 7,4 km/h (2 Bft) O-NO 67 9,2 C 17,6 C 15,3 km/h (3 Bft)
17.10.2018 15:42 18,1 C 17,8 C 13,4 C 56 % 1021,8 hPa 0,0 l/m 7,9 km/h (2 Bft) N 360 9,2 C 17,4 C 9,7 km/h (2 Bft)
17.10.2018 15:40 18,1 C 17,2 C 13,4 C 56 % 1021,8 hPa 0,0 l/m 9,5 km/h (2 Bft) S-SO 157 9,2 C 16,7 C 16,4 km/h (3 Bft)
17.10.2018 15:38 18,1 C 17,2 C 13,4 C 56 % 1021,8 hPa 0,0 l/m 9,7 km/h (2 Bft) O-NO 67 9,2 C 16,7 C 17,4 km/h (3 Bft)
17.10.2018 15:36 18,0 C 17,0 C 13,4 C 56 % 1021,8 hPa 0,0 l/m 10,1 km/h (2 Bft) O-NO 67 9,1 C 16,4 C 30,9 km/h (5 Bft)
17.10.2018 15:34 18,1 C 16,8 C 13,4 C 56 % 1021,8 hPa 0,0 l/m 11,4 km/h (2 Bft) O-NO 67 9,2 C 16,0 C 19,3 km/h (3 Bft)
17.10.2018 15:32 18,1 C 16,7 C 13,3 C 56 % 1021,8 hPa 0,0 l/m 10,8 km/h (2 Bft) O-NO 67 9,2 C 16,3 C 19,3 km/h (3 Bft)
17.10.2018 15:30 18,1 C 16,5 C 13,3 C 56 % 1021,7 hPa 0,0 l/m 9,0 km/h (2 Bft) O-NO 67 9,2 C 16,9 C 10,6 km/h (2 Bft)
17.10.2018 15:28 18,2 C 16,8 C 13,3 C 56 % 1021,7 hPa 0,0 l/m 9,0 km/h (2 Bft) O-NO 67 9,3 C 17,0 C 17,2 km/h (3 Bft)
17.10.2018 15:26 18,2 C 16,8 C 13,2 C 56 % 1021,7 hPa 0,0 l/m 8,5 km/h (2 Bft) O-NO 67 9,3 C 17,2 C 17,2 km/h (3 Bft)
17.10.2018 15:24 18,2 C 16,9 C 13,2 C 56 % 1021,7 hPa 0,0 l/m 8,2 km/h (2 Bft) O-NO 67 9,3 C 17,4 C 17,0 km/h (3 Bft)
17.10.2018 15:22 18,4 C 17,7 C 13,2 C 56 % 1021,7 hPa 0,0 l/m 8,5 km/h (2 Bft) O-SO 112 9,5 C 17,5 C 8,3 km/h (2 Bft)
17.10.2018 15:20 18,5 C 19,7 C 13,2 C 56 % 1021,7 hPa 0,0 l/m 9,3 km/h (2 Bft) N-NW 337 9,6 C 17,2 C 13,1 km/h (3 Bft)
17.10.2018 15:18 18,5 C 20,6 C 13,2 C 56 % 1021,7 hPa 0,0 l/m 8,4 km/h (2 Bft) O-SO 112 9,6 C 17,6 C 13,1 km/h (3 Bft)
17.10.2018 15:16 18,5 C 20,0 C 13,2 C 56 % 1021,7 hPa 0,0 l/m 7,4 km/h (2 Bft) W 270 9,6 C 18,0 C 29,7 km/h (5 Bft)
17.10.2018 15:14 18,4 C 18,4 C 13,2 C 56 % 1021,7 hPa 0,0 l/m 7,6 km/h (2 Bft) O 90 9,5 C 17,8 C 29,7 km/h (5 Bft)
17.10.2018 15:12 18,5 C 19,7 C 13,2 C 56 % 1021,7 hPa 0,0 l/m 6,3 km/h (2 Bft) O-NO 67 9,6 C 18,5 C 22,2 km/h (4 Bft)
17.10.2018 15:10 18,5 C 19,3 C 13,2 C 57 % 1021,7 hPa 0,0 l/m 5,5 km/h (1 Bft) O-NO 67 9,8 C 18,5 C 14,7 km/h (3 Bft)
17.10.2018 15:08 18,7 C 19,9 C 13,2 C 57 % 1021,7 hPa 0,0 l/m 5,5 km/h (1 Bft) S-SW 202 10,0 C 18,7 C 8,7 km/h (2 Bft)
17.10.2018 15:06 18,6 C 20,6 C 13,2 C 57 % 1021,7 hPa 0,0 l/m 6,1 km/h (2 Bft) N-NO 22 9,9 C 18,6 C 14,1 km/h (3 Bft)
17.10.2018 15:04 18,6 C 20,3 C 13,2 C 56 % 1021,7 hPa 0,0 l/m 6,9 km/h (2 Bft) S 180 9,6 C 18,4 C 14,1 km/h (3 Bft)
17.10.2018 15:02 18,6 C 20,7 C 13,1 C 56 % 1021,7 hPa 0,0 l/m 6,8 km/h (2 Bft) W-SW 247 9,6 C 18,4 C 8,1 km/h (2 Bft)
17.10.2018 15:00 18,5 C 20,2 C 13,1 C 56 % 1021,7 hPa 0,0 l/m 6,1 km/h (2 Bft) W-NW 292 9,6 C 18,5 C 11,6 km/h (2 Bft)
17.10.2018 14:58 18,4 C 19,5 C 13,1 C 56 % 1021,7 hPa 0,0 l/m 6,9 km/h (2 Bft) NW 315 9,5 C 18,2 C 11,6 km/h (2 Bft)
17.10.2018 14:56 18,4 C 18,9 C 13,1 C 56 % 1021,7 hPa 0,0 l/m 6,8 km/h (2 Bft) O-NO 67 9,5 C 18,2 C 16,4 km/h (3 Bft)
17.10.2018 14:54 18,3 C 19,1 C 13,1 C 56 % 1021,7 hPa 0,0 l/m 7,2 km/h (2 Bft) O-NO 67 9,4 C 17,9 C 16,4 km/h (3 Bft)
17.10.2018 14:52 18,3 C 18,1 C 13,1 C 56 % 1021,7 hPa 0,0 l/m 6,3 km/h (2 Bft) NO 45 9,4 C 18,3 C 7,9 km/h (2 Bft)
17.10.2018 14:50 18,3 C 17,6 C 13,1 C 56 % 1021,9 hPa 0,0 l/m 6,1 km/h (2 Bft) O-NO 67 9,4 C 18,3 C 10,8 km/h (2 Bft)
17.10.2018 14:48 18,2 C 17,5 C 13,1 C 56 % 1021,9 hPa 0,0 l/m 5,1 km/h (1 Bft) O-SO 112 9,3 C 18,2 C 10,8 km/h (2 Bft)
17.10.2018 14:46 18,4 C 18,0 C 13,1 C 56 % 1021,9 hPa 0,0 l/m 4,0 km/h (1 Bft) O-NO 67 9,5 C 18,4 C 15,4 km/h (3 Bft)
17.10.2018 14:44 18,5 C 19,1 C 13,1 C 56 % 1021,9 hPa 0,0 l/m 3,7 km/h (1 Bft) O-NO 67 9,6 C 18,5 C 15,4 km/h (3 Bft)
17.10.2018 14:42 18,5 C 19,9 C 13,1 C 56 % 1021,9 hPa 0,0 l/m 3,9 km/h (1 Bft) O-NO 67 9,6 C 18,5 C 10,0 km/h (2 Bft)
17.10.2018 14:40 18,5 C 20,3 C 13,0 C 56 % 1021,9 hPa 0,0 l/m 4,3 km/h (1 Bft) O 90 9,6 C 18,5 C 2,7 km/h (1 Bft)
17.10.2018 14:38 18,4 C 19,3 C 13,0 C 56 % 1021,9 hPa 0,0 l/m 4,7 km/h (1 Bft) O-SO 112 9,5 C 18,4 C 4,2 km/h (1 Bft)
17.10.2018 14:36 18,4 C 19,2 C 13,0 C 55 % 1021,9 hPa 0,0 l/m 4,7 km/h (1 Bft) O 90 9,2 C 18,4 C 12,6 km/h (3 Bft)
17.10.2018 14:34 18,3 C 18,7 C 13,0 C 55 % 1021,9 hPa 0,0 l/m 5,0 km/h (1 Bft) O 90 9,1 C 18,3 C 12,6 km/h (3 Bft)
17.10.2018 14:32 18,3 C 18,9 C 13,0 C 55 % 1021,9 hPa 0,0 l/m 3,5 km/h (1 Bft) O-SO 112 9,1 C 18,3 C 7,1 km/h (2 Bft)
17.10.2018 14:30 18,2 C 18,8 C 13,0 C 56 % 1021,9 hPa 0,0 l/m 3,2 km/h (1 Bft) O-NO 67 9,3 C 18,2 C 8,5 km/h (2 Bft)
17.10.2018 14:28 18,1 C 18,4 C 13,0 C 56 % 1021,9 hPa 0,0 l/m 3,4 km/h (1 Bft) O-NO 67 9,2 C 18,1 C 8,5 km/h (2 Bft)
17.10.2018 14:26 18,1 C 18,0 C 13,0 C 55 % 1021,9 hPa 0,0 l/m 3,4 km/h (1 Bft) SO 135 8,9 C 18,1 C 5,0 km/h (1 Bft)
17.10.2018 14:24 18,1 C 17,8 C 13,0 C 55 % 1021,9 hPa 0,0 l/m 3,2 km/h (1 Bft) O-NO 67 8,9 C 18,1 C 5,0 km/h (1 Bft)
17.10.2018 14:22 18,1 C 17,5 C 13,0 C 55 % 1021,9 hPa 0,0 l/m 3,2 km/h (1 Bft) O-NO 67 8,9 C 18,1 C 7,9 km/h (2 Bft)
17.10.2018 14:20 18,1 C 17,2 C 13,0 C 54 % 1021,9 hPa 0,0 l/m 4,5 km/h (1 Bft) O-NO 67 8,6 C 18,1 C 7,9 km/h (2 Bft)
17.10.2018 14:18 18,2 C 17,0 C 13,0 C 54 % 1021,9 hPa 0,0 l/m 5,6 km/h (1 Bft) SW 225 8,7 C 18,2 C 6,0 km/h (2 Bft)
17.10.2018 14:16 18,1 C 16,7 C 13,0 C 54 % 1021,9 hPa 0,0 l/m 6,4 km/h (2 Bft) O 90 8,6 C 18,1 C 3,9 km/h (1 Bft)
17.10.2018 14:14 18,2 C 16,7 C 12,9 C 54 % 1021,9 hPa 0,0 l/m 7,4 km/h (2 Bft) W 270 8,7 C 17,7 C 3,1 km/h (1 Bft)
17.10.2018 14:12 18,3 C 17,0 C 12,9 C 54 % 1021,9 hPa 0,0 l/m 8,5 km/h (2 Bft) W-NW 292 8,8 C 17,4 C 9,5 km/h (2 Bft)
17.10.2018 14:10 18,4 C 17,3 C 12,9 C 54 % 1021,9 hPa 0,0 l/m 8,9 km/h (2 Bft) S-SO 157 8,9 C 17,3 C 16,4 km/h (3 Bft)
17.10.2018 14:08 18,6 C 18,5 C 12,9 C 54 % 1021,9 hPa 0,0 l/m 7,9 km/h (2 Bft) SO 135 9,1 C 17,9 C 16,4 km/h (3 Bft)
17.10.2018 14:06 18,7 C 19,3 C 12,9 C 54 % 1021,9 hPa 0,0 l/m 7,7 km/h (2 Bft) S-SW 202 9,2 C 18,1 C 9,5 km/h (2 Bft)
17.10.2018 14:04 18,9 C 19,7 C 12,9 C 54 % 1021,9 hPa 0,0 l/m 7,9 km/h (2 Bft) S-SW 202 9,4 C 18,2 C 9,3 km/h (2 Bft)
17.10.2018 14:02 19,1 C 22,2 C 12,9 C 54 % 1021,9 hPa 0,0 l/m 8,2 km/h (2 Bft) O-SO 112 9,6 C 18,3 C 12,6 km/h (3 Bft)
17.10.2018 14:00 19,1 C 23,1 C 12,9 C 54 % 1021,9 hPa 0,0 l/m 8,2 km/h (2 Bft) NO 45 9,6 C 18,3 C 12,6 km/h (3 Bft)
17.10.2018 13:58 19,0 C 23,9 C 12,9 C 54 % 1021,9 hPa 0,0 l/m 9,3 km/h (2 Bft) O-NO 67 9,5 C 17,8 C 17,8 km/h (3 Bft)
17.10.2018 13:56 19,0 C 23,8 C 12,9 C 54 % 1021,9 hPa 0,0 l/m 10,5 km/h (2 Bft) O-NO 67 9,5 C 17,4 C 17,8 km/h (3 Bft)
17.10.2018 13:54 19,0 C 24,1 C 12,9 C 54 % 1021,9 hPa 0,0 l/m 9,5 km/h (2 Bft) O 90 9,5 C 17,7 C 18,0 km/h (3 Bft)
17.10.2018 13:52 19,0 C 24,4 C 12,9 C 54 % 1021,9 hPa 0,0 l/m 9,2 km/h (2 Bft) O-NO 67 9,5 C 17,8 C 18,0 km/h (3 Bft)
17.10.2018 13:50 19,0 C 23,8 C 12,9 C 53 % 1022,1 hPa 0,0 l/m 10,0 km/h (2 Bft) O-SO 112 9,2 C 17,5 C 20,9 km/h (4 Bft)
17.10.2018 13:48 18,9 C 23,6 C 12,9 C 54 % 1022,1 hPa 0,0 l/m 9,3 km/h (2 Bft) O 90 9,4 C 17,7 C 20,9 km/h (4 Bft)
17.10.2018 13:46 19,1 C 24,1 C 12,9 C 54 % 1022,1 hPa 0,0 l/m 8,2 km/h (2 Bft) O-SO 112 9,6 C 18,3 C 17,6 km/h (3 Bft)
17.10.2018 13:44 19,0 C 23,3 C 12,8 C 53 % 1022,1 hPa 0,0 l/m 8,7 km/h (2 Bft) SO 135 9,2 C 18,0 C 10,4 km/h (2 Bft)
17.10.2018 13:42 19,0 C 23,3 C 12,8 C 53 % 1022,1 hPa 0,0 l/m 8,5 km/h (2 Bft) W-NW 292 9,2 C 18,1 C 23,0 km/h (4 Bft)
17.10.2018 13:40 19,0 C 23,5 C 12,8 C 53 % 1022,1 hPa 0,0 l/m 7,9 km/h (2 Bft) O-SO 112 9,2 C 18,3 C 23,0 km/h (4 Bft)
17.10.2018 13:38 18,8 C 23,2 C 12,8 C 54 % 1022,1 hPa 0,0 l/m 7,9 km/h (2 Bft) W-SW 247 9,3 C 18,1 C 11,0 km/h (2 Bft)
17.10.2018 13:36 18,9 C 23,3 C 12,8 C 54 % 1022,1 hPa 0,0 l/m 8,7 km/h (2 Bft) SO 135 9,4 C 17,9 C 11,0 km/h (2 Bft)
17.10.2018 13:34 18,8 C 23,1 C 12,8 C 54 % 1022,1 hPa 0,0 l/m 7,7 km/h (2 Bft) O 90 9,3 C 18,2 C 13,3 km/h (3 Bft)
17.10.2018 13:32 18,9 C 23,3 C 12,8 C 54 % 1022,1 hPa 0,0 l/m 7,4 km/h (2 Bft) O 90 9,4 C 18,5 C 13,3 km/h (3 Bft)
17.10.2018 13:30 18,9 C 23,3 C 12,8 C 55 % 1022,0 hPa 0,0 l/m 6,3 km/h (2 Bft) NO 45 9,7 C 18,9 C 12,0 km/h (2 Bft)
17.10.2018 13:28 18,7 C 22,5 C 12,8 C 55 % 1022,0 hPa 0,0 l/m 6,1 km/h (2 Bft) S-SW 202 9,5 C 18,7 C 16,0 km/h (3 Bft)
17.10.2018 13:26 18,6 C 22,4 C 12,8 C 55 % 1022,0 hPa 0,0 l/m 5,5 km/h (1 Bft) S-SO 157 9,4 C 18,6 C 16,0 km/h (3 Bft)
17.10.2018 13:24 18,5 C 22,2 C 12,8 C 55 % 1022,0 hPa 0,0 l/m 4,5 km/h (1 Bft) S-SO 157 9,3 C 18,5 C 11,6 km/h (2 Bft)
17.10.2018 13:22 18,5 C 22,6 C 12,7 C 55 % 1022,0 hPa 0,0 l/m 5,0 km/h (1 Bft) N-NW 337 9,3 C 18,5 C 5,6 km/h (1 Bft)
17.10.2018 13:20 18,3 C 22,7 C 12,7 C 55 % 1022,0 hPa 0,0 l/m 4,8 km/h (1 Bft) O 90 9,1 C 18,3 C 8,3 km/h (2 Bft)
17.10.2018 13:18 18,3 C 22,6 C 12,7 C 55 % 1022,0 hPa 0,0 l/m 4,3 km/h (1 Bft) S-SO 157 9,1 C 18,3 C 8,3 km/h (2 Bft)
17.10.2018 13:16 18,1 C 21,9 C 12,7 C 55 % 1022,0 hPa 0,0 l/m 5,0 km/h (1 Bft) W 270 8,9 C 18,1 C 8,9 km/h (2 Bft)
17.10.2018 13:14 17,9 C 20,5 C 12,7 C 55 % 1022,0 hPa 0,0 l/m 5,0 km/h (1 Bft) O-SO 112 8,7 C 17,9 C 8,9 km/h (2 Bft)
17.10.2018 13:12 17,8 C 19,9 C 12,7 C 55 % 1022,0 hPa 0,0 l/m 3,5 km/h (1 Bft) O 90 8,6 C 17,8 C 10,4 km/h (2 Bft)
17.10.2018 13:10 17,7 C 18,2 C 12,7 C 55 % 1022,2 hPa 0,0 l/m 3,4 km/h (1 Bft) SO 135 8,5 C 17,7 C 3,7 km/h (1 Bft)
17.10.2018 13:08 17,7 C 18,8 C 12,7 C 55 % 1022,2 hPa 0,0 l/m 3,5 km/h (1 Bft) O-SO 112 8,5 C 17,7 C 7,3 km/h (2 Bft)
17.10.2018 13:06 17,6 C 18,5 C 12,7 C 55 % 1022,2 hPa 0,0 l/m 3,1 km/h (1 Bft) N 360 8,5 C 17,6 C 7,3 km/h (2 Bft)
17.10.2018 13:04 17,6 C 18,1 C 12,7 C 55 % 1022,2 hPa 0,0 l/m 2,7 km/h (1 Bft) NO 45 8,5 C 17,6 C 2,9 km/h (1 Bft)
17.10.2018 13:02 17,5 C 17,2 C 12,7 C 55 % 1022,2 hPa 0,0 l/m 2,4 km/h (1 Bft) W-NW 292 8,4 C 17,5 C 7,3 km/h (2 Bft)
17.10.2018 13:00 17,5 C 17,1 C 12,7 C 55 % 1022,2 hPa 0,0 l/m 2,9 km/h (1 Bft) S-SO 157 8,4 C 17,5 C 7,3 km/h (2 Bft)
17.10.2018 12:58 17,5 C 17,1 C 12,7 C 55 % 1022,2 hPa 0,0 l/m 2,7 km/h (1 Bft) S-SO 157 8,4 C 17,5 C 7,3 km/h (2 Bft)
17.10.2018 12:56 17,6 C 17,1 C 12,7 C 55 % 1022,2 hPa 0,0 l/m 3,2 km/h (1 Bft) O-SO 112 8,5 C 17,6 C 0,0 km/h (0 Bft)
17.10.2018 12:54 17,7 C 17,3 C 12,7 C 54 % 1022,2 hPa 0,0 l/m 3,7 km/h (1 Bft) O-NO 67 8,3 C 17,7 C 2,1 km/h (1 Bft)
17.10.2018 12:52 17,8 C 18,2 C 12,7 C 54 % 1022,2 hPa 0,0 l/m 4,5 km/h (1 Bft) S-SW 202 8,4 C 17,8 C 8,1 km/h (2 Bft)
17.10.2018 12:50 17,8 C 18,6 C 12,6 C 54 % 1022,5 hPa 0,0 l/m 4,5 km/h (1 Bft) S-SO 157 8,4 C 17,8 C 8,1 km/h (2 Bft)
17.10.2018 12:48 17,8 C 17,7 C 12,6 C 54 % 1022,5 hPa 0,0 l/m 4,7 km/h (1 Bft) W-NW 292 8,4 C 17,8 C 6,0 km/h (2 Bft)
17.10.2018 12:46 17,9 C 17,9 C 12,6 C 55 % 1022,5 hPa 0,0 l/m 4,7 km/h (1 Bft) O 90 8,7 C 17,9 C 10,4 km/h (2 Bft)
17.10.2018 12:44 18,1 C 19,8 C 12,6 C 54 % 1022,5 hPa 0,0 l/m 5,5 km/h (1 Bft) SO 135 8,6 C 18,1 C 10,4 km/h (2 Bft)
17.10.2018 12:42 18,0 C 20,3 C 12,6 C 54 % 1022,5 hPa 0,0 l/m 5,6 km/h (1 Bft) NW 315 8,6 C 18,0 C 9,5 km/h (2 Bft)
17.10.2018 12:40 18,0 C 19,8 C 12,6 C 55 % 1022,5 hPa 0,0 l/m 5,3 km/h (1 Bft) NW 315 8,8 C 18,0 C 5,8 km/h (2 Bft)
17.10.2018 12:38 18,0 C 19,9 C 12,6 C 54 % 1022,5 hPa 0,0 l/m 5,5 km/h (1 Bft) NW 315 8,6 C 18,0 C 10,0 km/h (2 Bft)
17.10.2018 12:36 18,0 C 19,5 C 12,6 C 54 % 1022,5 hPa 0,0 l/m 4,8 km/h (1 Bft) O-NO 67 8,6 C 18,0 C 28,4 km/h (4 Bft)
17.10.2018 12:34 18,0 C 19,7 C 12,6 C 55 % 1022,5 hPa 0,0 l/m 3,9 km/h (1 Bft) S-SO 157 8,8 C 18,0 C 14,1 km/h (3 Bft)
17.10.2018 12:32 18,1 C 19,9 C 12,6 C 56 % 1022,5 hPa 0,0 l/m 2,9 km/h (1 Bft) NW 315 9,2 C 18,1 C 4,2 km/h (1 Bft)
17.10.2018 12:30 18,1 C 20,0 C 12,6 C 56 % 1022,6 hPa 0,0 l/m 2,3 km/h (1 Bft) SW 225 9,2 C 18,1 C 15,4 km/h (3 Bft)
17.10.2018 12:28 18,1 C 21,0 C 12,6 C 56 % 1022,6 hPa 0,0 l/m 2,3 km/h (1 Bft) O-NO 67 9,2 C 18,1 C 15,4 km/h (3 Bft)
17.10.2018 12:26 18,0 C 20,8 C 12,6 C 56 % 1022,6 hPa 0,0 l/m 1,9 km/h (1 Bft) SO 135 9,1 C 18,0 C 2,1 km/h (1 Bft)
17.10.2018 12:24 17,9 C 20,5 C 12,5 C 56 % 1022,6 hPa 0,0 l/m 2,9 km/h (1 Bft) W-NW 292 9,0 C 17,9 C 2,1 km/h (1 Bft)
17.10.2018 12:22 17,9 C 20,4 C 12,5 C 57 % 1022,6 hPa 0,0 l/m 3,2 km/h (1 Bft) O-SO 112 9,3 C 17,9 C 2,3 km/h (1 Bft)
17.10.2018 12:20 17,7 C 20,2 C 12,5 C 56 % 1022,6 hPa 0,0 l/m 4,5 km/h (1 Bft) SW 225 8,8 C 17,7 C 2,9 km/h (1 Bft)
17.10.2018 12:18 17,6 C 20,3 C 12,5 C 56 % 1022,6 hPa 0,0 l/m 4,8 km/h (1 Bft) NW 315 8,7 C 17,6 C 6,4 km/h (2 Bft)
17.10.2018 12:16 17,6 C 19,9 C 12,5 C 57 % 1022,6 hPa 0,0 l/m 5,1 km/h (1 Bft) NO 45 9,0 C 17,6 C 7,0 km/h (2 Bft)
17.10.2018 12:14 17,5 C 19,5 C 12,5 C 57 % 1022,6 hPa 0,0 l/m 6,1 km/h (2 Bft) S-SO 157 8,9 C 17,5 C 9,1 km/h (2 Bft)
17.10.2018 12:12 17,4 C 19,2 C 12,5 C 56 % 1022,6 hPa 0,0 l/m 6,4 km/h (2 Bft) S-SO 157 8,5 C 17,4 C 12,0 km/h (2 Bft)
17.10.2018 12:10 17,5 C 19,8 C 12,4 C 58 % 1022,7 hPa 0,0 l/m 4,7 km/h (1 Bft) S-SO 157 9,1 C 17,5 C 12,0 km/h (2 Bft)
17.10.2018 12:08 17,5 C 19,8 C 12,4 C 58 % 1022,7 hPa 0,0 l/m 4,7 km/h (1 Bft) S-SO 157 9,1 C 17,5 C 12,0 km/h (2 Bft)
17.10.2018 12:06 17,5 C 19,8 C 12,4 C 58 % 1022,7 hPa 0,0 l/m 4,7 km/h (1 Bft) S-SO 157 9,1 C 17,5 C 12,0 km/h (2 Bft)
17.10.2018 12:04 17,5 C 19,8 C 12,4 C 58 % 1022,7 hPa 0,0 l/m 4,7 km/h (1 Bft) S-SO 157 9,1 C 17,5 C 12,0 km/h (2 Bft)
17.10.2018 12:02 17,5 C 19,8 C 12,4 C 58 % 1022,7 hPa 0,0 l/m 4,7 km/h (1 Bft) S-SO 157 9,1 C 17,5 C 12,0 km/h (2 Bft)
17.10.2018 12:00 17,5 C 19,8 C 12,4 C 58 % 1022,7 hPa 0,0 l/m 4,7 km/h (1 Bft) S-SO 157 9,1 C 17,5 C 12,0 km/h (2 Bft)
17.10.2018 11:58 17,5 C 19,6 C 12,4 C 58 % 1022,7 hPa 0,0 l/m 3,7 km/h (1 Bft) O-SO 112 9,1 C 17,5 C 14,3 km/h (3 Bft)
17.10.2018 11:56 17,5 C 20,0 C 12,4 C 59 % 1022,7 hPa 0,0 l/m 3,2 km/h (1 Bft) S-SO 157 9,4 C 17,5 C 14,3 km/h (3 Bft)
17.10.2018 11:54 17,4 C 19,9 C 12,4 C 59 % 1022,7 hPa 0,0 l/m 4,5 km/h (1 Bft) W-NW 292 9,3 C 17,4 C 7,5 km/h (2 Bft)
17.10.2018 11:52 17,3 C 19,6 C 12,3 C 59 % 1022,7 hPa 0,0 l/m 5,1 km/h (1 Bft) O-SO 112 9,2 C 17,3 C 7,5 km/h (2 Bft)
17.10.2018 11:50 17,2 C 18,3 C 12,3 C 60 % 1022,9 hPa 0,0 l/m 5,6 km/h (1 Bft) W-NW 292 9,4 C 17,2 C 2,1 km/h (1 Bft)
17.10.2018 11:48 17,1 C 17,2 C 12,3 C 60 % 1022,9 hPa 0,0 l/m 5,8 km/h (2 Bft) S-SW 202 9,3 C 17,1 C 5,6 km/h (1 Bft)
17.10.2018 11:46 17,1 C 17,6 C 12,3 C 60 % 1022,9 hPa 0,0 l/m 5,3 km/h (1 Bft) S-SW 202 9,3 C 17,1 C 20,5 km/h (4 Bft)
17.10.2018 11:44 17,2 C 18,4 C 12,3 C 61 % 1022,9 hPa 0,0 l/m 3,9 km/h (1 Bft) S 180 9,6 C 17,2 C 14,5 km/h (3 Bft)
17.10.2018 11:42 17,3 C 19,2 C 12,3 C 62 % 1022,9 hPa 0,0 l/m 1,9 km/h (1 Bft) S-SO 157 9,9 C 17,3 C 14,5 km/h (3 Bft)
17.10.2018 11:40 17,4 C 20,0 C 12,2 C 63 % 1022,9 hPa 0,0 l/m 0,8 km/h (0 Bft) W-NW 292 10,3 C 17,4 C 4,6 km/h (1 Bft)
17.10.2018 11:38 17,3 C 19,6 C 12,2 C 63 % 1022,9 hPa 0,0 l/m 0,2 km/h (0 Bft) N 360 10,2 C 17,3 C 0,0 km/h (0 Bft)
17.10.2018 11:36 17,1 C 19,2 C 12,2 C 63 % 1022,9 hPa 0,0 l/m 0,3 km/h (0 Bft) O-NO 67 10,0 C 17,1 C 0,0 km/h (0 Bft)
17.10.2018 11:34 16,9 C 19,1 C 12,2 C 65 % 1022,9 hPa 0,0 l/m 0,5 km/h (0 Bft) O-NO 67 10,3 C 16,9 C 0,0 km/h (0 Bft)
17.10.2018 11:32 16,8 C 18,8 C 12,2 C 66 % 1022,9 hPa 0,0 l/m 0,3 km/h (0 Bft) O-SO 112 10,4 C 16,8 C 0,0 km/h (0 Bft)
17.10.2018 11:30 16,9 C 18,9 C 12,1 C 66 % 1023,0 hPa 0,0 l/m 0,5 km/h (0 Bft) S-SW 202 10,5 C 16,9 C 0,0 km/h (0 Bft)
17.10.2018 11:28 16,8 C 19,0 C 12,1 C 67 % 1023,0 hPa 0,0 l/m 0,5 km/h (0 Bft) O-NO 67 10,6 C 16,8 C 0,0 km/h (0 Bft)
17.10.2018 11:26 16,8 C 19,1 C 12,0 C 67 % 1023,0 hPa 0,0 l/m 0,3 km/h (0 Bft) O-SO 112 10,6 C 16,8 C 0,0 km/h (0 Bft)
17.10.2018 11:24 16,6 C 19,0 C 12,0 C 67 % 1023,0 hPa 0,0 l/m 0,2 km/h (0 Bft) SO 135 10,4 C 16,6 C 0,0 km/h (0 Bft)
17.10.2018 11:22 16,5 C 18,8 C 12,0 C 68 % 1023,0 hPa 0,0 l/m 0,2 km/h (0 Bft) O-NO 67 10,6 C 16,5 C 0,0 km/h (0 Bft)
17.10.2018 11:20 16,6 C 18,5 C 12,0 C 68 % 1023,0 hPa 0,0 l/m 0,0 km/h (0 Bft) S-SW 202 10,7 C 16,6 C 0,0 km/h (0 Bft)
17.10.2018 11:18 16,3 C 18,3 C 12,0 C 68 % 1023,0 hPa 0,0 l/m 0,0 km/h (0 Bft) NO 45 10,4 C 16,3 C 0,0 km/h (0 Bft)
17.10.2018 11:16 16,1 C 18,4 C 12,0 C 69 % 1023,0 hPa 0,0 l/m 0,0 km/h (0 Bft) O-NO 67 10,4 C 16,1 C 0,0 km/h (0 Bft)
17.10.2018 11:14 16,2 C 18,3 C 11,9 C 69 % 1023,0 hPa 0,0 l/m 0,0 km/h (0 Bft) O-SO 112 10,5 C 16,2 C 0,0 km/h (0 Bft)
17.10.2018 11:12 16,0 C 18,0 C 11,9 C 69 % 1023,0 hPa 0,0 l/m 0,3 km/h (0 Bft) W-NW 292 10,3 C 16,0 C 0,0 km/h (0 Bft)
17.10.2018 11:10 15,8 C 17,8 C 11,9 C 70 % 1023,0 hPa 0,0 l/m 0,8 km/h (0 Bft) SO 135 10,3 C 15,8 C 0,0 km/h (0 Bft)
17.10.2018 11:08 15,7 C 17,4 C 11,8 C 70 % 1023,0 hPa 0,0 l/m 1,1 km/h (1 Bft) W-NW 292 10,2 C 15,7 C 0,0 km/h (0 Bft)
17.10.2018 11:06 15,5 C 17,1 C 11,8 C 71 % 1023,0 hPa 0,0 l/m 1,3 km/h (1 Bft) S 180 10,3 C 15,5 C 0,0 km/h (0 Bft)
17.10.2018 11:04 15,2 C 16,8 C 11,8 C 72 % 1023,0 hPa 0,0 l/m 1,4 km/h (1 Bft) SW 225 10,2 C 15,2 C 2,5 km/h (1 Bft)
17.10.2018 11:02 15,1 C 16,8 C 11,8 C 72 % 1023,0 hPa 0,0 l/m 1,3 km/h (1 Bft) O 90 10,1 C 15,1 C 2,5 km/h (1 Bft)
17.10.2018 11:00 15,1 C 16,7 C 11,7 C 73 % 1023,0 hPa 0,0 l/m 0,8 km/h (0 Bft) O-NO 67 10,3 C 15,1 C 2,5 km/h (1 Bft)
17.10.2018 10:58 14,9 C 16,0 C 11,7 C 73 % 1023,0 hPa 0,0 l/m 0,5 km/h (0 Bft) O-NO 67 10,1 C 14,9 C 2,5 km/h (1 Bft)
17.10.2018 10:56 14,9 C 15,9 C 11,7 C 74 % 1023,0 hPa 0,0 l/m 0,3 km/h (0 Bft) O-NO 67 10,3 C 14,9 C 2,7 km/h (1 Bft)
17.10.2018 10:54 14,9 C 15,9 C 11,7 C 75 % 1023,0 hPa 0,0 l/m 0,3 km/h (0 Bft) O-NO 67 10,5 C 14,9 C 2,7 km/h (1 Bft)
17.10.2018 10:52 14,9 C 15,9 C 11,7 C 75 % 1023,0 hPa 0,0 l/m 0,5 km/h (0 Bft) O 90 10,5 C 14,9 C 0,0 km/h (0 Bft)
17.10.2018 10:50 15,0 C 16,1 C 11,6 C 76 % 1023,1 hPa 0,0 l/m 1,0 km/h (0 Bft) W-NW 292 10,8 C 15,0 C 0,0 km/h (0 Bft)
17.10.2018 10:48 15,1 C 16,2 C 11,6 C 76 % 1023,1 hPa 0,0 l/m 1,6 km/h (1 Bft) O 90 10,9 C 15,1 C 0,0 km/h (0 Bft)
17.10.2018 10:46 14,9 C 17,2 C 11,6 C 77 % 1023,1 hPa 0,0 l/m 1,9 km/h (1 Bft) O-SO 112 10,9 C 14,9 C 2,7 km/h (1 Bft)
17.10.2018 10:44 14,7 C 17,1 C 11,6 C 77 % 1023,1 hPa 0,0 l/m 2,4 km/h (1 Bft) O 90 10,7 C 14,7 C 4,1 km/h (1 Bft)
17.10.2018 10:42 14,6 C 16,9 C 11,6 C 78 % 1023,1 hPa 0,0 l/m 2,4 km/h (1 Bft) O-NO 67 10,8 C 14,6 C 4,1 km/h (1 Bft)
17.10.2018 10:40 14,3 C 16,8 C 11,5 C 78 % 1023,1 hPa 0,0 l/m 2,1 km/h (1 Bft) O-NO 67 10,5 C 14,3 C 4,1 km/h (1 Bft)
17.10.2018 10:38 14,2 C 16,9 C 11,5 C 79 % 1023,1 hPa 0,0 l/m 1,6 km/h (1 Bft) O-NO 67 10,6 C 14,2 C 4,1 km/h (1 Bft)
17.10.2018 10:36 14,1 C 16,6 C 11,5 C 80 % 1023,1 hPa 0,0 l/m 1,1 km/h (1 Bft) NO 45 10,7 C 14,1 C 3,3 km/h (1 Bft)
17.10.2018 10:34 13,8 C 16,6 C 11,5 C 81 % 1023,1 hPa 0,0 l/m 0,6 km/h (0 Bft) O 90 10,6 C 13,8 C 3,5 km/h (1 Bft)
17.10.2018 10:32 13,9 C 16,4 C 11,5 C 81 % 1023,1 hPa 0,0 l/m 0,3 km/h (0 Bft) O-NO 67 10,7 C 13,9 C 3,5 km/h (1 Bft)
17.10.2018 10:30 13,7 C 16,3 C 11,4 C 82 % 1022,8 hPa 0,0 l/m 0,0 km/h (0 Bft) O-NO 67 10,7 C 13,7 C 0,0 km/h (0 Bft)
17.10.2018 10:28 13,4 C 15,5 C 11,4 C 82 % 1022,8 hPa 0,0 l/m 0,0 km/h (0 Bft) SO 135 10,4 C 13,4 C 0,0 km/h (0 Bft)
17.10.2018 10:26 13,3 C 15,4 C 11,4 C 82 % 1022,8 hPa 0,0 l/m 0,0 km/h (0 Bft) N-NW 337 10,3 C 13,3 C 0,0 km/h (0 Bft)
17.10.2018 10:24 13,3 C 15,3 C 11,5 C 83 % 1022,8 hPa 0,0 l/m 0,0 km/h (0 Bft) N-NO 22 10,5 C 13,3 C 0,0 km/h (0 Bft)
17.10.2018 10:22 13,1 C 15,5 C 11,5 C 83 % 1022,8 hPa 0,0 l/m 0,0 km/h (0 Bft) S 180 10,3 C 13,1 C 0,0 km/h (0 Bft)
17.10.2018 10:20 12,7 C 15,0 C 11,4 C 83 % 1022,8 hPa 0,0 l/m 0,0 km/h (0 Bft) W 270 9,9 C 12,7 C 0,0 km/h (0 Bft)
17.10.2018 10:18 12,4 C 15,0 C 11,4 C 84 % 1022,8 hPa 0,0 l/m 0,0 km/h (0 Bft) O 90 9,8 C 12,4 C 0,0 km/h (0 Bft)
17.10.2018 10:16 12,2 C 14,2 C 11,4 C 85 % 1022,8 hPa 0,0 l/m 0,0 km/h (0 Bft) SO 135 9,8 C 12,2 C 0,0 km/h (0 Bft)
17.10.2018 10:14 12,1 C 14,6 C 11,4 C 85 % 1022,8 hPa 0,0 l/m 0,0 km/h (0 Bft) S-SO 157 9,7 C 12,1 C 0,0 km/h (0 Bft)
17.10.2018 10:12 12,0 C 14,4 C 11,3 C 86 % 1022,8 hPa 0,0 l/m 0,0 km/h (0 Bft) O-SO 112 9,7 C 12,0 C 0,0 km/h (0 Bft)
17.10.2018 10:10 11,6 C 14,5 C 11,3 C 86 % 1023,2 hPa 0,0 l/m 0,0 km/h (0 Bft) O-SO 112 9,3 C 11,6 C 0,0 km/h (0 Bft)
17.10.2018 10:08 11,3 C 13,8 C 11,4 C 86 % 1023,2 hPa 0,0 l/m 0,0 km/h (0 Bft) S-SO 157 9,0 C 11,3 C 0,0 km/h (0 Bft)
17.10.2018 10:06 10,7 C 13,9 C 11,4 C 87 % 1023,2 hPa 0,0 l/m 0,0 km/h (0 Bft) S-SO 157 8,6 C 10,7 C 0,0 km/h (0 Bft)
17.10.2018 10:04 10,4 C 12,4 C 11,3 C 86 % 1023,2 hPa 0,0 l/m 0,0 km/h (0 Bft) SO 135 8,2 C 10,4 C 0,0 km/h (0 Bft)
17.10.2018 10:02 10,0 C 11,7 C 11,3 C 86 % 1023,2 hPa 0,0 l/m 0,0 km/h (0 Bft) S-SO 157 7,8 C 10,0 C 0,0 km/h (0 Bft)
17.10.2018 10:00 9,8 C 11,6 C 11,3 C 87 % 1023,2 hPa 0,0 l/m 0,0 km/h (0 Bft) SW 225 7,7 C 9,8 C 0,0 km/h (0 Bft)
17.10.2018 09:58 9,5 C 10,8 C 11,3 C 87 % 1023,2 hPa 0,0 l/m 0,0 km/h (0 Bft) W 270 7,4 C 9,5 C 0,0 km/h (0 Bft)
17.10.2018 09:56 9,4 C 10,4 C 11,3 C 87 % 1023,2 hPa 0,0 l/m 0,0 km/h (0 Bft) SO 135 7,3 C 9,4 C 0,0 km/h (0 Bft)
17.10.2018 09:54 9,3 C 10,4 C 11,3 C 87 % 1023,2 hPa 0,0 l/m 0,0 km/h (0 Bft) SO 135 7,2 C 9,3 C 0,0 km/h (0 Bft)
17.10.2018 09:52 9,3 C 10,7 C 11,4 C 87 % 1023,2 hPa 0,0 l/m 0,0 km/h (0 Bft) O-SO 112 7,2 C 9,3 C 0,0 km/h (0 Bft)
17.10.2018 09:50 9,1 C 10,7 C 11,3 C 87 % 1023,1 hPa 0,0 l/m 0,0 km/h (0 Bft) O-SO 112 7,1 C 9,1 C 0,0 km/h (0 Bft)
17.10.2018 09:48 9,1 C 10,3 C 11,3 C 87 % 1023,1 hPa 0,0 l/m 0,0 km/h (0 Bft) O-NO 67 7,1 C 9,1 C 0,0 km/h (0 Bft)
17.10.2018 09:46 9,0 C 10,4 C 11,3 C 87 % 1023,1 hPa 0,0 l/m 0,0 km/h (0 Bft) O 90 7,0 C 9,0 C 0,0 km/h (0 Bft)
17.10.2018 09:44 8,9 C 10,1 C 11,3 C 87 % 1023,1 hPa 0,0 l/m 0,0 km/h (0 Bft) S-SO 157 6,9 C 8,9 C 0,0 km/h (0 Bft)
17.10.2018 09:42 8,8 C 9,6 C 11,3 C 87 % 1023,1 hPa 0,0 l/m 0,0 km/h (0 Bft) NO 45 6,8 C 8,8 C 0,0 km/h (0 Bft)
17.10.2018 09:40 8,5 C 9,1 C 11,3 C 88 % 1023,1 hPa 0,0 l/m 0,0 km/h (0 Bft) NO 45 6,6 C 8,5 C 0,0 km/h (0 Bft)
17.10.2018 09:38 8,5 C 9,0 C 11,3 C 88 % 1023,1 hPa 0,0 l/m 0,0 km/h (0 Bft) S-SO 157 6,6 C 8,5 C 0,0 km/h (0 Bft)
17.10.2018 09:36 8,5 C 9,0 C 11,3 C 88 % 1023,1 hPa 0,0 l/m 0,0 km/h (0 Bft) O-SO 112 6,6 C 8,5 C 0,0 km/h (0 Bft)
17.10.2018 09:34 8,4 C 8,9 C 11,3 C 88 % 1023,1 hPa 0,0 l/m 0,0 km/h (0 Bft) SO 135 6,5 C 8,4 C 0,0 km/h (0 Bft)
17.10.2018 09:32 8,3 C 8,9 C 11,3 C 88 % 1023,1 hPa 0,0 l/m 0,0 km/h (0 Bft) S-SO 157 6,4 C 8,3 C 0,0 km/h (0 Bft)
17.10.2018 09:30 8,3 C 8,8 C 11,3 C 88 % 1023,2 hPa 0,0 l/m 0,0 km/h (0 Bft) NW 315 6,4 C 8,3 C 0,0 km/h (0 Bft)
17.10.2018 09:28 8,2 C 8,6 C 11,2 C 88 % 1023,2 hPa 0,0 l/m 0,0 km/h (0 Bft) O-SO 112 6,3 C 8,2 C 0,0 km/h (0 Bft)
17.10.2018 09:26 8,2 C 8,7 C 11,2 C 88 % 1023,2 hPa 0,0 l/m 0,0 km/h (0 Bft) S-SW 202 6,3 C 8,2 C 0,0 km/h (0 Bft)
17.10.2018 09:24 8,1 C 8,8 C 11,2 C 88 % 1023,2 hPa 0,0 l/m 0,0 km/h (0 Bft) O-SO 112 6,2 C 8,1 C 0,0 km/h (0 Bft)
17.10.2018 09:22 8,0 C 8,9 C 11,2 C 88 % 1023,2 hPa 0,0 l/m 0,0 km/h (0 Bft) O 90 6,1 C 8,0 C 0,0 km/h (0 Bft)
17.10.2018 09:20 8,0 C 8,9 C 11,2 C 88 % 1023,2 hPa 0,0 l/m 0,0 km/h (0 Bft) O-NO 67 6,1 C 8,0 C 0,0 km/h (0 Bft)
17.10.2018 09:18 8,0 C 9,0 C 11,2 C 88 % 1023,2 hPa 0,0 l/m 0,0 km/h (0 Bft) O-NO 67 6,1 C 8,0 C 0,0 km/h (0 Bft)
17.10.2018 09:16 8,0 C 9,2 C 11,2 C 88 % 1023,2 hPa 0,0 l/m 0,0 km/h (0 Bft) O-NO 67 6,1 C 8,0 C 0,0 km/h (0 Bft)
17.10.2018 09:14 8,0 C 9,3 C 11,2 C 88 % 1023,2 hPa 0,0 l/m 0,0 km/h (0 Bft) O-NO 67 6,1 C 8,0 C 0,0 km/h (0 Bft)
17.10.2018 09:12 7,9 C 9,3 C 11,2 C 89 % 1023,2 hPa 0,0 l/m 0,0 km/h (0 Bft) N 360 6,2 C 7,9 C 0,0 km/h (0 Bft)
17.10.2018 09:10 7,7 C 9,0 C 11,2 C 89 % 1023,2 hPa 0,0 l/m 0,0 km/h (0 Bft) S-SO 157 6,0 C 7,7 C 0,0 km/h (0 Bft)
17.10.2018 09:08 7,6 C 8,9 C 11,2 C 89 % 1023,2 hPa 0,0 l/m 0,0 km/h (0 Bft) S-SW 202 5,9 C 7,6 C 0,0 km/h (0 Bft)
17.10.2018 09:06 7,4 C 8,9 C 11,2 C 89 % 1023,2 hPa 0,0 l/m 0,0 km/h (0 Bft) W-NW 292 5,7 C 7,4 C 0,0 km/h (0 Bft)
17.10.2018 09:04 7,3 C 8,7 C 11,2 C 89 % 1023,2 hPa 0,0 l/m 0,0 km/h (0 Bft) W 270 5,6 C 7,3 C 0,0 km/h (0 Bft)
17.10.2018 09:02 7,2 C 8,6 C 11,1 C 89 % 1023,2 hPa 0,0 l/m 0,0 km/h (0 Bft) SW 225 5,5 C 7,2 C 0,0 km/h (0 Bft)
17.10.2018 09:00 7,2 C 8,5 C 11,1 C 88 % 1023,2 hPa 0,0 l/m 0,0 km/h (0 Bft) S 180 5,3 C 7,2 C 0,0 km/h (0 Bft)
17.10.2018 08:58 7,0 C 8,4 C 11,1 C 88 % 1023,2 hPa 0,0 l/m 0,0 km/h (0 Bft) N-NO 22 5,2 C 7,0 C 0,0 km/h (0 Bft)
17.10.2018 08:56 6,8 C 8,3 C 11,1 C 89 % 1023,2 hPa 0,0 l/m 0,2 km/h (0 Bft) NO 45 5,1 C 6,8 C 0,0 km/h (0 Bft)
17.10.2018 08:54 6,8 C 8,2 C 11,1 C 89 % 1023,2 hPa 0,0 l/m 0,2 km/h (0 Bft) SO 135 5,1 C 6,8 C 0,0 km/h (0 Bft)
17.10.2018 08:52 6,6 C 7,9 C 11,1 C 89 % 1023,2 hPa 0,0 l/m 0,3 km/h (0 Bft) O-NO 67 4,9 C 6,6 C 0,0 km/h (0 Bft)
17.10.2018 08:50 6,5 C 8,1 C 11,1 C 88 % 1023,2 hPa 0,0 l/m 0,3 km/h (0 Bft) S 180 4,7 C 6,5 C 0,0 km/h (0 Bft)
17.10.2018 08:48 6,5 C 8,0 C 11,1 C 88 % 1023,2 hPa 0,0 l/m 0,3 km/h (0 Bft) O-SO 112 4,7 C 6,5 C 2,7 km/h (1 Bft)
17.10.2018 08:46 6,5 C 7,9 C 11,1 C 88 % 1023,2 hPa 0,0 l/m 0,2 km/h (0 Bft) O-NO 67 4,7 C 6,5 C 2,7 km/h (1 Bft)
17.10.2018 08:44 6,3 C 7,8 C 11,1 C 88 % 1023,2 hPa 0,0 l/m 0,0 km/h (0 Bft) NO 45 4,5 C 6,3 C 0,0 km/h (0 Bft)
17.10.2018 08:42 6,3 C 7,8 C 11,1 C 88 % 1023,2 hPa 0,0 l/m 0,0 km/h (0 Bft) O-NO 67 4,5 C 6,3 C 0,0 km/h (0 Bft)
17.10.2018 08:40 6,1 C 7,4 C 11,1 C 88 % 1023,2 hPa 0,0 l/m 0,0 km/h (0 Bft) O-NO 67 4,3 C 6,1 C 0,0 km/h (0 Bft)
17.10.2018 08:38 6,0 C 7,3 C 11,1 C 88 % 1023,2 hPa 0,0 l/m 0,0 km/h (0 Bft) O-SO 112 4,2 C 6,0 C 0,0 km/h (0 Bft)
17.10.2018 08:36 5,9 C 7,1 C 11,1 C 89 % 1023,2 hPa 0,0 l/m 0,0 km/h (0 Bft) O-NO 67 4,2 C 5,9 C 0,0 km/h (0 Bft)
17.10.2018 08:34 5,8 C 6,9 C 11,1 C 89 % 1023,2 hPa 0,0 l/m 0,0 km/h (0 Bft) W-NW 292 4,1 C 5,8 C 0,0 km/h (0 Bft)
17.10.2018 08:32 5,8 C 6,8 C 11,1 C 89 % 1023,2 hPa 0,0 l/m 0,0 km/h (0 Bft) S-SO 157 4,1 C 5,8 C 0,0 km/h (0 Bft)
17.10.2018 08:30 5,7 C 6,5 C 11,1 C 89 % 1023,0 hPa 0,0 l/m 0,0 km/h (0 Bft) NW 315 4,0 C 5,7 C 0,0 km/h (0 Bft)
17.10.2018 08:28 5,8 C 6,4 C 11,1 C 89 % 1023,0 hPa 0,0 l/m 0,0 km/h (0 Bft) W 270 4,1 C 5,8 C 0,0 km/h (0 Bft)
17.10.2018 08:26 5,6 C 6,2 C 11,1 C 89 % 1023,0 hPa 0,0 l/m 0,0 km/h (0 Bft) S-SO 157 3,9 C 5,6 C 0,0 km/h (0 Bft)
17.10.2018 08:24 5,6 C 6,1 C 11,1 C 89 % 1023,0 hPa 0,0 l/m 0,0 km/h (0 Bft) S-SO 157 3,9 C 5,6 C 0,0 km/h (0 Bft)
17.10.2018 08:22 5,6 C 5,8 C 11,2 C 89 % 1023,0 hPa 0,0 l/m 0,0 km/h (0 Bft) W-SW 247 3,9 C 5,6 C 0,0 km/h (0 Bft)
17.10.2018 08:20 5,6 C 5,3 C 11,2 C 89 % 1023,0 hPa 0,0 l/m 0,0 km/h (0 Bft) O 90 3,9 C 5,6 C 0,0 km/h (0 Bft)
17.10.2018 08:18 5,5 C 5,2 C 11,2 C 89 % 1023,0 hPa 0,0 l/m 0,0 km/h (0 Bft) S-SW 202 3,8 C 5,5 C 0,0 km/h (0 Bft)
17.10.2018 08:16 5,3 C 5,0 C 11,2 C 89 % 1023,0 hPa 0,0 l/m 0,0 km/h (0 Bft) N-NW 337 3,6 C 5,3 C 0,0 km/h (0 Bft)
17.10.2018 08:14 5,2 C 4,6 C 11,2 C 89 % 1023,0 hPa 0,0 l/m 0,0 km/h (0 Bft) O-NO 67 3,5 C 5,2 C 0,0 km/h (0 Bft)
17.10.2018 08:12 5,1 C 4,5 C 11,2 C 89 % 1023,0 hPa 0,0 l/m 0,0 km/h (0 Bft) O-NO 67 3,4 C 5,1 C 0,0 km/h (0 Bft)
17.10.2018 08:10 5,0 C 4,4 C 11,2 C 89 % 1022,9 hPa 0,0 l/m 0,0 km/h (0 Bft) N-NO 22 3,3 C 5,0 C 0,0 km/h (0 Bft)
17.10.2018 08:08 4,9 C 4,1 C 11,2 C 89 % 1022,9 hPa 0,0 l/m 0,0 km/h (0 Bft) O-NO 67 3,2 C 4,9 C 0,0 km/h (0 Bft)
17.10.2018 08:06 5,0 C 3,9 C 11,2 C 89 % 1022,9 hPa 0,0 l/m 0,0 km/h (0 Bft) N 360 3,3 C 5,0 C 0,0 km/h (0 Bft)
17.10.2018 08:04 5,1 C 3,5 C 11,2 C 89 % 1022,9 hPa 0,0 l/m 0,2 km/h (0 Bft) S-SO 157 3,4 C 5,1 C 0,0 km/h (0 Bft)
17.10.2018 08:02 4,9 C 3,4 C 11,2 C 89 % 1022,9 hPa 0,0 l/m 0,5 km/h (0 Bft) S-SW 202 3,2 C 4,9 C 0,0 km/h (0 Bft)
17.10.2018 08:00 4,9 C 3,3 C 11,2 C 89 % 1022,9 hPa 0,0 l/m 0,5 km/h (0 Bft) NW 315 3,2 C 4,9 C 0,0 km/h (0 Bft)
17.10.2018 07:58 4,9 C 3,2 C 11,2 C 89 % 1022,9 hPa 0,0 l/m 0,5 km/h (0 Bft) S-SW 202 3,2 C 4,9 C 1,9 km/h (1 Bft)
17.10.2018 07:56 4,8 C 2,8 C 11,2 C 89 % 1022,9 hPa 0,0 l/m 0,5 km/h (0 Bft) S-SO 157 3,1 C 4,8 C 1,9 km/h (1 Bft)
17.10.2018 07:54 4,7 C 2,2 C 11,2 C 89 % 1022,9 hPa 0,0 l/m 0,3 km/h (0 Bft) S 180 3,0 C 4,7 C 0,0 km/h (0 Bft)
17.10.2018 07:52 5,0 C 1,6 C 11,2 C 89 % 1022,9 hPa 0,0 l/m 0,3 km/h (0 Bft) S 180 3,3 C 5,0 C 0,0 km/h (0 Bft)
17.10.2018 07:50 5,0 C 1,3 C 11,2 C 89 % 1022,8 hPa 0,0 l/m 0,0 km/h (0 Bft) O-NO 67 3,3 C 5,0 C 0,0 km/h (0 Bft)
17.10.2018 07:48 4,9 C 1,3 C 11,2 C 89 % 1022,8 hPa 0,0 l/m 0,0 km/h (0 Bft) S-SO 157 3,2 C 4,9 C 0,0 km/h (0 Bft)
17.10.2018 07:46 5,0 C 1,3 C 11,2 C 89 % 1022,8 hPa 0,0 l/m 0,0 km/h (0 Bft) O-NO 67 3,3 C 5,0 C 0,0 km/h (0 Bft)
17.10.2018 07:44 4,8 C 1,2 C 11,2 C 89 % 1022,8 hPa 0,0 l/m 0,0 km/h (0 Bft) O-NO 67 3,1 C 4,8 C 0,0 km/h (0 Bft)
17.10.2018 07:42 4,5 C 1,2 C 11,2 C 89 % 1022,8 hPa 0,0 l/m 0,0 km/h (0 Bft) O 90 2,8 C 4,5 C 2,1 km/h (1 Bft)
17.10.2018 07:40 4,5 C 1,2 C 11,2 C 89 % 1022,8 hPa 0,0 l/m 0,0 km/h (0 Bft) O-NO 67 2,8 C 4,5 C 2,1 km/h (1 Bft)
17.10.2018 07:38 4,8 C 1,1 C 11,2 C 89 % 1022,8 hPa 0,0 l/m 0,0 km/h (0 Bft) SO 135 3,1 C 4,8 C 0,0 km/h (0 Bft)
17.10.2018 07:36 5,0 C 1,2 C 11,3 C 89 % 1022,8 hPa 0,0 l/m 0,0 km/h (0 Bft) NO 45 3,3 C 5,0 C 0,0 km/h (0 Bft)
17.10.2018 07:34 4,8 C 1,1 C 11,3 C 89 % 1022,8 hPa 0,0 l/m 0,0 km/h (0 Bft) N-NO 22 3,1 C 4,8 C 0,0 km/h (0 Bft)
17.10.2018 07:32 4,7 C 1,1 C 11,3 C 89 % 1022,8 hPa 0,0 l/m 0,0 km/h (0 Bft) NW 315 3,0 C 4,7 C 0,0 km/h (0 Bft)
17.10.2018 07:30 4,5 C 1,1 C 11,3 C 89 % 1023,0 hPa 0,0 l/m 0,0 km/h (0 Bft) O-NO 67 2,8 C 4,5 C 0,0 km/h (0 Bft)
17.10.2018 07:28 4,7 C 1,2 C 11,3 C 89 % 1023,0 hPa 0,0 l/m 0,0 km/h (0 Bft) S-SW 202 3,0 C 4,7 C 0,0 km/h (0 Bft)
17.10.2018 07:26 4,8 C 1,3 C 11,3 C 89 % 1023,0 hPa 0,0 l/m 0,0 km/h (0 Bft) O-SO 112 3,1 C 4,8 C 0,0 km/h (0 Bft)
17.10.2018 07:24 4,9 C 1,3 C 11,3 C 89 % 1023,0 hPa 0,0 l/m 0,0 km/h (0 Bft) SO 135 3,2 C 4,9 C 0,0 km/h (0 Bft)
17.10.2018 07:22 5,0 C 1,3 C 11,3 C 88 % 1023,0 hPa 0,0 l/m 0,0 km/h (0 Bft) S-SO 157 3,2 C 5,0 C 0,0 km/h (0 Bft)
17.10.2018 07:20 4,9 C 1,5 C 11,3 C 89 % 1023,0 hPa 0,0 l/m 0,0 km/h (0 Bft) O-SO 112 3,2 C 4,9 C 0,0 km/h (0 Bft)
17.10.2018 07:18 4,7 C 1,2 C 11,3 C 89 % 1023,0 hPa 0,0 l/m 0,0 km/h (0 Bft) NW 315 3,0 C 4,7 C 0,0 km/h (0 Bft)
17.10.2018 07:16 4,7 C 1,2 C 11,3 C 89 % 1023,0 hPa 0,0 l/m 0,0 km/h (0 Bft) NW 315 3,0 C 4,7 C 0,0 km/h (0 Bft)
17.10.2018 07:14 4,4 C 1,3 C 11,3 C 89 % 1023,0 hPa 0,0 l/m 0,0 km/h (0 Bft) N-NO 22 2,7 C 4,4 C 0,0 km/h (0 Bft)
17.10.2018 07:12 4,4 C 1,2 C 11,3 C 89 % 1023,0 hPa 0,0 l/m 0,0 km/h (0 Bft) O-SO 112 2,7 C 4,4 C 0,0 km/h (0 Bft)
17.10.2018 07:10 4,4 C 1,2 C 11,3 C 89 % 1022,8 hPa 0,0 l/m 0,0 km/h (0 Bft) NO 45 2,7 C 4,4 C 0,0 km/h (0 Bft)
17.10.2018 07:08 4,4 C 1,1 C 11,3 C 89 % 1022,8 hPa 0,0 l/m 0,2 km/h (0 Bft) S-SO 157 2,7 C 4,4 C 0,0 km/h (0 Bft)
17.10.2018 07:06 4,4 C 1,3 C 11,3 C 89 % 1022,8 hPa 0,0 l/m 0,2 km/h (0 Bft) SO 135 2,7 C 4,4 C 0,0 km/h (0 Bft)
17.10.2018 07:04 4,4 C 1,7 C 11,3 C 89 % 1022,8 hPa 0,0 l/m 0,5 km/h (0 Bft) SW 225 2,7 C 4,4 C 0,0 km/h (0 Bft)
17.10.2018 07:02 4,4 C 2,1 C 11,3 C 89 % 1022,8 hPa 0,0 l/m 0,8 km/h (0 Bft) W 270 2,7 C 4,4 C 0,0 km/h (0 Bft)
17.10.2018 07:00 4,3 C 1,9 C 11,3 C 89 % 1022,8 hPa 0,0 l/m 0,8 km/h (0 Bft) W-NW 292 2,7 C 4,3 C 2,1 km/h (1 Bft)
17.10.2018 06:58 4,8 C 0,8 C 11,3 C 89 % 1022,8 hPa 0,0 l/m 0,6 km/h (0 Bft) NW 315 3,1 C 4,8 C 2,1 km/h (1 Bft)
17.10.2018 06:56 4,9 C 0,7 C 11,3 C 89 % 1022,8 hPa 0,0 l/m 0,6 km/h (0 Bft) O-NO 67 3,2 C 4,9 C 2,9 km/h (1 Bft)
17.10.2018 06:54 4,8 C 0,7 C 11,4 C 89 % 1022,8 hPa 0,0 l/m 0,5 km/h (0 Bft) O-NO 67 3,1 C 4,8 C 3,1 km/h (1 Bft)
17.10.2018 06:52 4,8 C 0,8 C 11,4 C 89 % 1022,8 hPa 0,0 l/m 0,2 km/h (0 Bft) O-NO 67 3,1 C 4,8 C 3,1 km/h (1 Bft)
17.10.2018 06:50 5,0 C 0,7 C 11,4 C 88 % 1022,6 hPa 0,0 l/m 0,0 km/h (0 Bft) O-NO 67 3,2 C 5,0 C 0,0 km/h (0 Bft)
17.10.2018 06:48 4,5 C 0,5 C 11,4 C 89 % 1022,6 hPa 0,0 l/m 0,0 km/h (0 Bft) N-NO 22 2,8 C 4,5 C 0,0 km/h (0 Bft)
17.10.2018 06:46 4,9 C 0,6 C 11,4 C 89 % 1022,6 hPa 0,0 l/m 0,0 km/h (0 Bft) SO 135 3,2 C 4,9 C 0,0 km/h (0 Bft)
17.10.2018 06:44 4,8 C 0,6 C 11,4 C 89 % 1022,6 hPa 0,0 l/m 0,2 km/h (0 Bft) O-SO 112 3,1 C 4,8 C 0,0 km/h (0 Bft)
17.10.2018 06:42 4,7 C 0,5 C 11,4 C 89 % 1022,6 hPa 0,0 l/m 0,2 km/h (0 Bft) S 180 3,0 C 4,7 C 0,0 km/h (0 Bft)
17.10.2018 06:40 4,7 C 0,5 C 11,4 C 89 % 1022,6 hPa 0,0 l/m 0,3 km/h (0 Bft) NO 45 3,0 C 4,7 C 0,0 km/h (0 Bft)
17.10.2018 06:38 4,8 C 0,5 C 11,4 C 89 % 1022,6 hPa 0,0 l/m 0,3 km/h (0 Bft) NO 45 3,1 C 4,8 C 0,0 km/h (0 Bft)
17.10.2018 06:36 4,7 C 0,6 C 11,4 C 88 % 1022,6 hPa 0,0 l/m 0,3 km/h (0 Bft) SO 135 2,9 C 4,7 C 2,5 km/h (1 Bft)
17.10.2018 06:34 4,7 C 0,6 C 11,4 C 88 % 1022,6 hPa 0,0 l/m 0,2 km/h (0 Bft) O-NO 67 2,9 C 4,7 C 2,5 km/h (1 Bft)
17.10.2018 06:32 4,5 C 0,7 C 11,4 C 88 % 1022,6 hPa 0,0 l/m 0,2 km/h (0 Bft) O-NO 67 2,7 C 4,5 C 1,9 km/h (1 Bft)
17.10.2018 06:30 4,7 C 0,6 C 11,4 C 88 % 1022,7 hPa 0,0 l/m 0,0 km/h (0 Bft) O 90 2,9 C 4,7 C 1,9 km/h (1 Bft)
17.10.2018 06:28 4,9 C 0,5 C 11,4 C 88 % 1022,7 hPa 0,0 l/m 0,2 km/h (0 Bft) S-SW 202 3,1 C 4,9 C 0,0 km/h (0 Bft)
17.10.2018 06:26 4,9 C 0,3 C 11,4 C 88 % 1022,7 hPa 0,0 l/m 0,2 km/h (0 Bft) S-SW 202 3,1 C 4,9 C 0,0 km/h (0 Bft)
17.10.2018 06:24 5,0 C 0,5 C 11,4 C 88 % 1022,7 hPa 0,0 l/m 0,3 km/h (0 Bft) SW 225 3,2 C 5,0 C 0,0 km/h (0 Bft)
17.10.2018 06:22 4,9 C 0,6 C 11,4 C 88 % 1022,7 hPa 0,0 l/m 0,3 km/h (0 Bft) SW 225 3,1 C 4,9 C 0,0 km/h (0 Bft)
17.10.2018 06:20 4,7 C 0,5 C 11,4 C 88 % 1022,7 hPa 0,0 l/m 0,3 km/h (0 Bft) S-SO 157 2,9 C 4,7 C 2,1 km/h (1 Bft)
17.10.2018 06:18 4,4 C 0,5 C 11,5 C 88 % 1022,7 hPa 0,0 l/m 0,2 km/h (0 Bft) S-SO 157 2,6 C 4,4 C 2,1 km/h (1 Bft)
17.10.2018 06:16 4,5 C 0,5 C 11,5 C 88 % 1022,7 hPa 0,0 l/m 0,2 km/h (0 Bft) O 90 2,7 C 4,5 C 1,9 km/h (1 Bft)
17.10.2018 06:14 4,4 C 0,5 C 11,5 C 88 % 1022,7 hPa 0,0 l/m 0,0 km/h (0 Bft) O-NO 67 2,6 C 4,4 C 0,0 km/h (0 Bft)
17.10.2018 06:12 4,7 C 0,3 C 11,5 C 88 % 1022,7 hPa 0,0 l/m 0,0 km/h (0 Bft) O-NO 67 2,9 C 4,7 C 0,0 km/h (0 Bft)
17.10.2018 06:10 4,5 C 0,1 C 11,5 C 88 % 1022,5 hPa 0,0 l/m 0,0 km/h (0 Bft) W 270 2,7 C 4,5 C 0,0 km/h (0 Bft)
17.10.2018 06:08 4,5 C 0,1 C 11,5 C 88 % 1022,5 hPa 0,0 l/m 0,0 km/h (0 Bft) W 270 2,7 C 4,5 C 0,0 km/h (0 Bft)
17.10.2018 06:06 4,5 C 0,1 C 11,5 C 88 % 1022,5 hPa 0,0 l/m 0,0 km/h (0 Bft) W 270 2,7 C 4,5 C 0,0 km/h (0 Bft)
17.10.2018 06:04 4,5 C 0,1 C 11,5 C 88 % 1022,5 hPa 0,0 l/m 0,0 km/h (0 Bft) W 270 2,7 C 4,5 C 0,0 km/h (0 Bft)
17.10.2018 06:02 4,5 C 0,1 C 11,5 C 88 % 1022,5 hPa 0,0 l/m 0,0 km/h (0 Bft) W 270 2,7 C 4,5 C 0,0 km/h (0 Bft)
17.10.2018 06:00 4,5 C 0,1 C 11,5 C 88 % 1022,5 hPa 0,0 l/m 0,0 km/h (0 Bft) W 270 2,7 C 4,5 C 0,0 km/h (0 Bft)
17.10.2018 05:58 4,5 C 0,2 C 11,5 C 88 % 1022,5 hPa 0,0 l/m 0,0 km/h (0 Bft) W 270 2,7 C 4,5 C 0,0 km/h (0 Bft)
17.10.2018 05:56 4,2 C 0,5 C 11,5 C 88 % 1022,5 hPa 0,0 l/m 0,0 km/h (0 Bft) SO 135 2,4 C 4,2 C 0,0 km/h (0 Bft)
17.10.2018 05:54 4,5 C 0,3 C 11,5 C 88 % 1022,5 hPa 0,0 l/m 0,0 km/h (0 Bft) S 180 2,7 C 4,5 C 0,0 km/h (0 Bft)
17.10.2018 05:52 4,7 C -0,2 C 11,5 C 88 % 1022,5 hPa 0,0 l/m 0,0 km/h (0 Bft) NO 45 2,9 C 4,7 C 0,0 km/h (0 Bft)
17.10.2018 05:50 4,4 C 0,0 C 11,5 C 88 % 1022,4 hPa 0,0 l/m 0,0 km/h (0 Bft) N-NO 22 2,6 C 4,4 C 0,0 km/h (0 Bft)
17.10.2018 05:48 4,5 C 0,1 C 11,6 C 88 % 1022,4 hPa 0,0 l/m 0,0 km/h (0 Bft) W-SW 247 2,7 C 4,5 C 0,0 km/h (0 Bft)
17.10.2018 05:46 4,5 C 0,2 C 11,6 C 87 % 1022,4 hPa 0,0 l/m 0,0 km/h (0 Bft) SW 225 2,5 C 4,5 C 0,0 km/h (0 Bft)
17.10.2018 05:44 4,4 C -0,2 C 11,6 C 88 % 1022,4 hPa 0,0 l/m 0,0 km/h (0 Bft) N 360 2,6 C 4,4 C 0,0 km/h (0 Bft)
17.10.2018 05:42 4,3 C 0,0 C 11,6 C 88 % 1022,4 hPa 0,0 l/m 0,0 km/h (0 Bft) N 360 2,5 C 4,3 C 0,0 km/h (0 Bft)
17.10.2018 05:40 4,4 C 0,0 C 11,6 C 88 % 1022,4 hPa 0,0 l/m 0,0 km/h (0 Bft) O-NO 67 2,6 C 4,4 C 0,0 km/h (0 Bft)
17.10.2018 05:38 4,7 C 0,0 C 11,6 C 88 % 1022,4 hPa 0,0 l/m 0,0 km/h (0 Bft) NO 45 2,9 C 4,7 C 0,0 km/h (0 Bft)
17.10.2018 05:36 4,8 C 0,0 C 11,6 C 88 % 1022,4 hPa 0,0 l/m 0,0 km/h (0 Bft) N 360 3,0 C 4,8 C 0,0 km/h (0 Bft)
17.10.2018 05:34 4,8 C 0,1 C 11,6 C 88 % 1022,4 hPa 0,0 l/m 0,0 km/h (0 Bft) W 270 3,0 C 4,8 C 0,0 km/h (0 Bft)
17.10.2018 05:32 4,8 C 0,3 C 11,6 C 88 % 1022,4 hPa 0,0 l/m 0,0 km/h (0 Bft) W-NW 292 3,0 C 4,8 C 0,0 km/h (0 Bft)
17.10.2018 05:30 4,5 C 0,3 C 11,6 C 87 % 1022,6 hPa 0,0 l/m 0,2 km/h (0 Bft) SW 225 2,5 C 4,5 C 0,0 km/h (0 Bft)
17.10.2018 05:28 4,7 C 0,3 C 11,6 C 88 % 1022,6 hPa 0,0 l/m 0,2 km/h (0 Bft) W 270 2,9 C 4,7 C 0,0 km/h (0 Bft)
17.10.2018 05:26 4,8 C 0,1 C 11,6 C 88 % 1022,6 hPa 0,0 l/m 0,2 km/h (0 Bft) S-SW 202 3,0 C 4,8 C 0,0 km/h (0 Bft)
17.10.2018 05:24 4,9 C 0,1 C 11,6 C 87 % 1022,6 hPa 0,0 l/m 0,2 km/h (0 Bft) NO 45 2,9 C 4,9 C 0,0 km/h (0 Bft)
17.10.2018 05:22 4,9 C 0,2 C 11,7 C 87 % 1022,6 hPa 0,0 l/m 0,3 km/h (0 Bft) S-SO 157 2,9 C 4,9 C 2,9 km/h (1 Bft)
17.10.2018 05:20 4,9 C 0,3 C 11,7 C 87 % 1022,6 hPa 0,0 l/m 0,3 km/h (0 Bft) S-SO 157 2,9 C 4,9 C 2,9 km/h (1 Bft)
17.10.2018 05:18 4,8 C 0,3 C 11,7 C 87 % 1022,6 hPa 0,0 l/m 0,2 km/h (0 Bft) W 270 2,8 C 4,8 C 0,0 km/h (0 Bft)
17.10.2018 05:16 4,9 C 0,5 C 11,7 C 87 % 1022,6 hPa 0,0 l/m 0,2 km/h (0 Bft) N-NO 22 2,9 C 4,9 C 2,3 km/h (1 Bft)
17.10.2018 05:14 5,0 C 0,2 C 11,7 C 87 % 1022,6 hPa 0,0 l/m 0,2 km/h (0 Bft) NO 45 3,0 C 5,0 C 2,3 km/h (1 Bft)
17.10.2018 05:12 4,9 C 0,3 C 11,7 C 87 % 1022,6 hPa 0,0 l/m 0,2 km/h (0 Bft) NO 45 2,9 C 4,9 C 0,0 km/h (0 Bft)
17.10.2018 05:10 4,8 C 0,5 C 11,7 C 87 % 1022,6 hPa 0,0 l/m 0,2 km/h (0 Bft) O-NO 67 2,8 C 4,8 C 0,0 km/h (0 Bft)
17.10.2018 05:08 4,9 C 0,5 C 11,7 C 87 % 1022,6 hPa 0,0 l/m 0,5 km/h (0 Bft) O-NO 67 2,9 C 4,9 C 0,0 km/h (0 Bft)
17.10.2018 05:06 4,9 C 0,7 C 11,7 C 87 % 1022,6 hPa 0,0 l/m 0,5 km/h (0 Bft) S-SO 157 2,9 C 4,9 C 0,0 km/h (0 Bft)
17.10.2018 05:04 4,8 C 1,3 C 11,7 C 87 % 1022,6 hPa 0,0 l/m 0,6 km/h (0 Bft) S 180 2,8 C 4,8 C 2,9 km/h (1 Bft)
17.10.2018 05:02 4,5 C 2,2 C 11,7 C 87 % 1022,6 hPa 0,0 l/m 0,6 km/h (0 Bft) NW 315 2,5 C 4,5 C 2,9 km/h (1 Bft)
17.10.2018 05:01 4,8 C 2,2 C 11,7 C 87 % 1022,6 hPa 0,0 l/m 0,5 km/h (0 Bft) S-SW 202 2,8 C 4,8 C 0,0 km/h (0 Bft)
17.10.2018 05:00 4,8 C 2,2 C 11,7 C 87 % 1022,6 hPa 0,0 l/m 0,5 km/h (0 Bft) S-SW 202 2,8 C 4,8 C 3,7 km/h (1 Bft)
17.10.2018 04:58 4,5 C 1,8 C 11,7 C 87 % 1022,6 hPa 0,0 l/m 0,5 km/h (0 Bft) NW 315 2,5 C 4,5 C 3,7 km/h (1 Bft)
17.10.2018 04:56 5,1 C 0,6 C 11,7 C 87 % 1022,6 hPa 0,0 l/m 0,0 km/h (0 Bft) S-SO 157 3,1 C 5,1 C 0,0 km/h (0 Bft)
17.10.2018 04:54 5,0 C 0,5 C 11,7 C 87 % 1022,6 hPa 0,0 l/m 0,0 km/h (0 Bft) NO 45 3,0 C 5,0 C 0,0 km/h (0 Bft)
17.10.2018 04:52 5,1 C 1,1 C 11,7 C 87 % 1022,6 hPa 0,0 l/m 0,0 km/h (0 Bft) O-SO 112 3,1 C 5,1 C 0,0 km/h (0 Bft)
17.10.2018 04:50 4,9 C 0,8 C 11,8 C 87 % 1022,7 hPa 0,0 l/m 0,0 km/h (0 Bft) N-NO 22 2,9 C 4,9 C 0,0 km/h (0 Bft)
17.10.2018 04:48 5,0 C 0,5 C 11,8 C 87 % 1022,7 hPa 0,0 l/m 0,3 km/h (0 Bft) S-SW 202 3,0 C 5,0 C 0,0 km/h (0 Bft)
17.10.2018 04:46 4,8 C 0,5 C 11,8 C 87 % 1022,7 hPa 0,0 l/m 0,3 km/h (0 Bft) S-SO 157 2,8 C 4,8 C 4,4 km/h (1 Bft)
17.10.2018 04:44 4,8 C 0,6 C 11,8 C 87 % 1022,7 hPa 0,0 l/m 0,3 km/h (0 Bft) N-NO 22 2,8 C 4,8 C 0,0 km/h (0 Bft)
17.10.2018 04:42 5,2 C 0,5 C 11,8 C 87 % 1022,7 hPa 0,0 l/m 0,3 km/h (0 Bft) W 270 3,2 C 5,2 C 0,0 km/h (0 Bft)
17.10.2018 04:40 4,8 C 1,0 C 11,8 C 87 % 1022,7 hPa 0,0 l/m 0,3 km/h (0 Bft) W-NW 292 2,8 C 4,8 C 0,0 km/h (0 Bft)
17.10.2018 04:38 5,2 C 0,7 C 11,8 C 87 % 1022,7 hPa 0,0 l/m 0,2 km/h (0 Bft) NO 45 3,2 C 5,2 C 0,0 km/h (0 Bft)
17.10.2018 04:36 5,2 C 0,8 C 11,8 C 87 % 1022,7 hPa 0,0 l/m 0,2 km/h (0 Bft) O 90 3,2 C 5,2 C 4,1 km/h (1 Bft)
17.10.2018 04:34 5,1 C 0,8 C 11,8 C 87 % 1022,7 hPa 0,0 l/m 0,2 km/h (0 Bft) O-NO 67 3,1 C 5,1 C 3,7 km/h (1 Bft)
17.10.2018 04:32 5,5 C 0,6 C 11,8 C 87 % 1022,7 hPa 0,0 l/m 0,0 km/h (0 Bft) NW 315 3,5 C 5,5 C 0,0 km/h (0 Bft)
17.10.2018 04:30 5,2 C 0,2 C 11,8 C 87 % 1022,6 hPa 0,0 l/m 0,0 km/h (0 Bft) S-SW 202 3,2 C 5,2 C 0,0 km/h (0 Bft)
17.10.2018 04:28 5,0 C 0,2 C 11,8 C 87 % 1022,6 hPa 0,0 l/m 0,0 km/h (0 Bft) S-SW 202 3,0 C 5,0 C 0,0 km/h (0 Bft)
17.10.2018 04:26 4,8 C 0,3 C 11,8 C 87 % 1022,6 hPa 0,0 l/m 0,0 km/h (0 Bft) W 270 2,8 C 4,8 C 0,0 km/h (0 Bft)
17.10.2018 04:24 4,8 C 0,5 C 11,9 C 87 % 1022,6 hPa 0,0 l/m 0,0 km/h (0 Bft) SO 135 2,8 C 4,8 C 0,0 km/h (0 Bft)
17.10.2018 04:22 4,8 C 0,7 C 11,9 C 87 % 1022,6 hPa 0,0 l/m 0,0 km/h (0 Bft) O 90 2,8 C 4,8 C 0,0 km/h (0 Bft)
17.10.2018 04:20 4,8 C 1,0 C 11,9 C 87 % 1022,6 hPa 0,0 l/m 0,2 km/h (0 Bft) O-NO 67 2,8 C 4,8 C 0,0 km/h (0 Bft)
17.10.2018 04:18 5,1 C 0,6 C 11,9 C 87 % 1022,6 hPa 0,0 l/m 0,2 km/h (0 Bft) SO 135 3,1 C 5,1 C 0,0 km/h (0 Bft)
17.10.2018 04:16 4,8 C 0,6 C 11,9 C 87 % 1022,6 hPa 0,0 l/m 0,2 km/h (0 Bft) N-NO 22 2,8 C 4,8 C 0,0 km/h (0 Bft)
17.10.2018 04:14 4,9 C 0,5 C 11,9 C 87 % 1022,6 hPa 0,0 l/m 0,2 km/h (0 Bft) S-SO 157 2,9 C 4,9 C 0,0 km/h (0 Bft)
17.10.2018 04:12 5,0 C 0,7 C 11,9 C 87 % 1022,6 hPa 0,0 l/m 0,2 km/h (0 Bft) S-SW 202 3,0 C 5,0 C 0,0 km/h (0 Bft)
17.10.2018 04:10 5,0 C 0,8 C 11,9 C 87 % 1022,6 hPa 0,0 l/m 0,3 km/h (0 Bft) SW 225 3,0 C 5,0 C 2,1 km/h (1 Bft)
17.10.2018 04:08 4,8 C 0,6 C 11,9 C 87 % 1022,6 hPa 0,0 l/m 0,3 km/h (0 Bft) SW 225 2,8 C 4,8 C 2,1 km/h (1 Bft)
17.10.2018 04:06 5,1 C 0,1 C 11,9 C 87 % 1022,6 hPa 0,0 l/m 0,2 km/h (0 Bft) W-SW 247 3,1 C 5,1 C 0,0 km/h (0 Bft)
17.10.2018 04:04 5,2 C 0,1 C 11,9 C 86 % 1022,6 hPa 0,0 l/m 0,2 km/h (0 Bft) SO 135 3,1 C 5,2 C 0,0 km/h (0 Bft)
17.10.2018 04:02 5,2 C 0,1 C 11,9 C 86 % 1022,6 hPa 0,0 l/m 0,2 km/h (0 Bft) O-NO 67 3,1 C 5,2 C 0,0 km/h (0 Bft)
17.10.2018 04:00 5,2 C 0,0 C 11,9 C 86 % 1022,6 hPa 0,0 l/m 0,0 km/h (0 Bft) O-NO 67 3,1 C 5,2 C 0,0 km/h (0 Bft)
17.10.2018 03:58 5,1 C 0,1 C 12,0 C 86 % 1022,6 hPa 0,0 l/m 0,0 km/h (0 Bft) O-SO 112 3,0 C 5,1 C 0,0 km/h (0 Bft)
17.10.2018 03:56 5,2 C 0,1 C 12,0 C 86 % 1022,6 hPa 0,0 l/m 0,0 km/h (0 Bft) N-NW 337 3,1 C 5,2 C 0,0 km/h (0 Bft)
17.10.2018 03:54 5,5 C 0,2 C 12,0 C 86 % 1022,6 hPa 0,0 l/m 0,0 km/h (0 Bft) O-SO 112 3,3 C 5,5 C 0,0 km/h (0 Bft)
17.10.2018 03:52 5,3 C 0,3 C 12,0 C 86 % 1022,6 hPa 0,0 l/m 0,0 km/h (0 Bft) W-NW 292 3,2 C 5,3 C 0,0 km/h (0 Bft)
17.10.2018 03:50 5,7 C 0,5 C 12,0 C 86 % 1022,7 hPa 0,0 l/m 0,0 km/h (0 Bft) S-SO 157 3,5 C 5,7 C 0,0 km/h (0 Bft)
17.10.2018 03:48 5,6 C 0,5 C 12,0 C 86 % 1022,7 hPa 0,0 l/m 0,0 km/h (0 Bft) N 360 3,4 C 5,6 C 0,0 km/h (0 Bft)
17.10.2018 03:46 5,6 C 0,5 C 12,0 C 86 % 1022,7 hPa 0,0 l/m 0,0 km/h (0 Bft) SO 135 3,4 C 5,6 C 0,0 km/h (0 Bft)
17.10.2018 03:44 5,5 C 0,6 C 12,0 C 86 % 1022,7 hPa 0,0 l/m 0,0 km/h (0 Bft) N-NW 337 3,3 C 5,5 C 0,0 km/h (0 Bft)
17.10.2018 03:42 5,5 C 0,8 C 12,0 C 86 % 1022,7 hPa 0,0 l/m 0,0 km/h (0 Bft) S-SO 157 3,3 C 5,5 C 0,0 km/h (0 Bft)
17.10.2018 03:40 5,3 C 1,0 C 12,0 C 86 % 1022,7 hPa 0,0 l/m 0,0 km/h (0 Bft) NW 315 3,2 C 5,3 C 0,0 km/h (0 Bft)
17.10.2018 03:38 5,2 C 0,3 C 12,0 C 86 % 1022,7 hPa 0,0 l/m 0,0 km/h (0 Bft) S 180 3,1 C 5,2 C 0,0 km/h (0 Bft)
17.10.2018 03:36 5,5 C 0,1 C 12,0 C 86 % 1022,7 hPa 0,0 l/m 0,0 km/h (0 Bft) O-SO 112 3,3 C 5,5 C 0,0 km/h (0 Bft)
17.10.2018 03:34 5,4 C 0,1 C 12,1 C 86 % 1022,7 hPa 0,0 l/m 0,0 km/h (0 Bft) S-SO 157 3,3 C 5,4 C 0,0 km/h (0 Bft)
17.10.2018 03:32 5,6 C 0,2 C 12,1 C 86 % 1022,7 hPa 0,0 l/m 0,0 km/h (0 Bft) O-SO 112 3,4 C 5,6 C 0,0 km/h (0 Bft)
17.10.2018 03:30 5,5 C 0,2 C 12,1 C 86 % 1022,8 hPa 0,0 l/m 0,0 km/h (0 Bft) O-SO 112 3,3 C 5,5 C 0,0 km/h (0 Bft)
17.10.2018 03:28 5,4 C 0,2 C 12,1 C 86 % 1022,8 hPa 0,0 l/m 0,0 km/h (0 Bft) O-SO 112 3,3 C 5,4 C 0,0 km/h (0 Bft)
17.10.2018 03:26 5,5 C 0,2 C 12,1 C 86 % 1022,8 hPa 0,0 l/m 0,0 km/h (0 Bft) O-NO 67 3,3 C 5,5 C 0,0 km/h (0 Bft)
17.10.2018 03:24 5,6 C 0,2 C 12,1 C 86 % 1022,8 hPa 0,0 l/m 0,0 km/h (0 Bft) O-NO 67 3,4 C 5,6 C 0,0 km/h (0 Bft)
17.10.2018 03:22 5,6 C 0,2 C 12,1 C 86 % 1022,8 hPa 0,0 l/m 0,0 km/h (0 Bft) O-NO 67 3,4 C 5,6 C 0,0 km/h (0 Bft)
17.10.2018 03:20 5,6 C 0,2 C 12,1 C 86 % 1022,8 hPa 0,0 l/m 0,0 km/h (0 Bft) O-NO 67 3,4 C 5,6 C 0,0 km/h (0 Bft)
17.10.2018 03:18 5,6 C 0,2 C 12,1 C 86 % 1022,8 hPa 0,0 l/m 0,0 km/h (0 Bft) SO 135 3,4 C 5,6 C 0,0 km/h (0 Bft)
17.10.2018 03:16 5,6 C 0,3 C 12,1 C 85 % 1022,8 hPa 0,0 l/m 0,0 km/h (0 Bft) O-SO 112 3,3 C 5,6 C 0,0 km/h (0 Bft)
17.10.2018 03:14 5,6 C 0,6 C 12,1 C 85 % 1022,8 hPa 0,0 l/m 0,0 km/h (0 Bft) N-NO 22 3,3 C 5,6 C 0,0 km/h (0 Bft)
17.10.2018 03:12 5,4 C 0,7 C 12,1 C 85 % 1022,8 hPa 0,0 l/m 0,0 km/h (0 Bft) N 360 3,1 C 5,4 C 0,0 km/h (0 Bft)
17.10.2018 03:10 5,4 C 0,6 C 12,1 C 85 % 1022,9 hPa 0,0 l/m 0,0 km/h (0 Bft) SW 225 3,1 C 5,4 C 0,0 km/h (0 Bft)
17.10.2018 03:08 5,4 C 0,6 C 12,2 C 85 % 1022,9 hPa 0,0 l/m 0,0 km/h (0 Bft) SW 225 3,1 C 5,4 C 0,0 km/h (0 Bft)
17.10.2018 03:06 5,8 C 0,7 C 12,2 C 85 % 1022,9 hPa 0,0 l/m 0,0 km/h (0 Bft) SW 225 3,5 C 5,8 C 0,0 km/h (0 Bft)
17.10.2018 03:04 5,9 C 1,2 C 12,2 C 85 % 1022,9 hPa 0,0 l/m 0,0 km/h (0 Bft) SW 225 3,6 C 5,9 C 0,0 km/h (0 Bft)
17.10.2018 03:02 5,6 C 0,8 C 12,2 C 85 % 1022,9 hPa 0,0 l/m 0,0 km/h (0 Bft) SW 225 3,3 C 5,6 C 0,0 km/h (0 Bft)
17.10.2018 03:00 5,4 C 1,0 C 12,2 C 85 % 1022,9 hPa 0,0 l/m 0,0 km/h (0 Bft) SW 225 3,1 C 5,4 C 0,0 km/h (0 Bft)
17.10.2018 02:58 5,6 C 1,0 C 12,2 C 85 % 1022,9 hPa 0,0 l/m 0,0 km/h (0 Bft) SW 225 3,3 C 5,6 C 0,0 km/h (0 Bft)
17.10.2018 02:56 5,6 C 0,5 C 12,2 C 85 % 1022,9 hPa 0,0 l/m 0,0 km/h (0 Bft) W 270 3,3 C 5,6 C 0,0 km/h (0 Bft)
17.10.2018 02:54 5,5 C 0,5 C 12,2 C 85 % 1022,9 hPa 0,0 l/m 0,0 km/h (0 Bft) S 180 3,2 C 5,5 C 0,0 km/h (0 Bft)
17.10.2018 02:52 5,4 C 0,2 C 12,2 C 85 % 1022,9 hPa 0,0 l/m 0,2 km/h (0 Bft) S-SW 202 3,1 C 5,4 C 0,0 km/h (0 Bft)
17.10.2018 02:50 5,5 C 0,2 C 12,2 C 85 % 1022,9 hPa 0,0 l/m 0,2 km/h (0 Bft) S-SO 157 3,2 C 5,5 C 0,0 km/h (0 Bft)
17.10.2018 02:48 5,5 C 0,2 C 12,2 C 85 % 1022,9 hPa 0,0 l/m 0,2 km/h (0 Bft) O-SO 112 3,2 C 5,5 C 0,0 km/h (0 Bft)
17.10.2018 02:46 5,4 C 0,2 C 12,2 C 85 % 1022,9 hPa 0,0 l/m 0,2 km/h (0 Bft) O-SO 112 3,1 C 5,4 C 0,0 km/h (0 Bft)
17.10.2018 02:44 5,3 C 0,5 C 12,2 C 85 % 1022,9 hPa 0,0 l/m 0,2 km/h (0 Bft) O 90 3,0 C 5,3 C 0,0 km/h (0 Bft)
17.10.2018 02:42 5,5 C 0,6 C 12,3 C 85 % 1022,9 hPa 0,0 l/m 0,0 km/h (0 Bft) O-NO 67 3,2 C 5,5 C 0,0 km/h (0 Bft)
17.10.2018 02:40 5,8 C 0,8 C 12,3 C 85 % 1022,9 hPa 0,0 l/m 0,0 km/h (0 Bft) S-SO 157 3,5 C 5,8 C 0,0 km/h (0 Bft)
17.10.2018 02:38 5,5 C 0,8 C 12,3 C 84 % 1022,9 hPa 0,0 l/m 0,0 km/h (0 Bft) N 360 3,0 C 5,5 C 0,0 km/h (0 Bft)
17.10.2018 02:36 5,5 C 0,8 C 12,3 C 85 % 1022,9 hPa 0,0 l/m 0,0 km/h (0 Bft) O-NO 67 3,2 C 5,5 C 0,0 km/h (0 Bft)
17.10.2018 02:34 5,5 C 1,3 C 12,3 C 85 % 1022,9 hPa 0,0 l/m 0,3 km/h (0 Bft) SW 225 3,2 C 5,5 C 0,0 km/h (0 Bft)
17.10.2018 02:32 5,6 C 1,6 C 12,3 C 84 % 1022,9 hPa 0,0 l/m 0,6 km/h (0 Bft) SO 135 3,1 C 5,6 C 0,0 km/h (0 Bft)
17.10.2018 02:30 5,8 C 1,6 C 12,3 C 84 % 1022,9 hPa 0,0 l/m 0,6 km/h (0 Bft) W-SW 247 3,3 C 5,8 C 0,0 km/h (0 Bft)
17.10.2018 02:28 5,8 C 2,2 C 12,3 C 84 % 1022,9 hPa 0,0 l/m 0,6 km/h (0 Bft) S 180 3,3 C 5,8 C 0,0 km/h (0 Bft)
17.10.2018 02:26 5,6 C 1,9 C 12,3 C 84 % 1022,9 hPa 0,0 l/m 0,8 km/h (0 Bft) O-NO 67 3,1 C 5,6 C 3,5 km/h (1 Bft)
17.10.2018 02:24 5,5 C 1,8 C 12,3 C 84 % 1022,9 hPa 0,0 l/m 0,6 km/h (0 Bft) W 270 3,0 C 5,5 C 3,5 km/h (1 Bft)
17.10.2018 02:22 5,8 C 0,8 C 12,3 C 84 % 1022,9 hPa 0,0 l/m 0,5 km/h (0 Bft) S-SO 157 3,3 C 5,8 C 3,5 km/h (1 Bft)
17.10.2018 02:20 6,0 C 0,9 C 12,4 C 83 % 1022,9 hPa 0,0 l/m 0,3 km/h (0 Bft) W 270 3,3 C 6,0 C 1,9 km/h (1 Bft)
17.10.2018 02:18 6,0 C 1,2 C 12,4 C 83 % 1022,9 hPa 0,0 l/m 0,5 km/h (0 Bft) W-NW 292 3,3 C 6,0 C 3,1 km/h (1 Bft)
17.10.2018 02:16 6,1 C 1,3 C 12,4 C 83 % 1022,9 hPa 0,0 l/m 0,3 km/h (0 Bft) O-NO 67 3,4 C 6,1 C 3,3 km/h (1 Bft)
17.10.2018 02:14 5,8 C 1,5 C 12,4 C 84 % 1022,9 hPa 0,0 l/m 0,3 km/h (0 Bft) S-SW 202 3,3 C 5,8 C 0,0 km/h (0 Bft)
17.10.2018 02:12 5,9 C 1,5 C 12,4 C 84 % 1022,9 hPa 0,0 l/m 0,2 km/h (0 Bft) O-NO 67 3,4 C 5,9 C 0,0 km/h (0 Bft)
17.10.2018 02:10 6,0 C 1,2 C 12,4 C 83 % 1023,3 hPa 0,0 l/m 0,2 km/h (0 Bft) O-NO 67 3,3 C 6,0 C 0,0 km/h (0 Bft)
17.10.2018 02:08 5,8 C 1,2 C 12,4 C 84 % 1023,3 hPa 0,0 l/m 0,2 km/h (0 Bft) NO 45 3,3 C 5,8 C 0,0 km/h (0 Bft)
17.10.2018 02:06 6,0 C 1,3 C 12,4 C 83 % 1023,3 hPa 0,0 l/m 0,0 km/h (0 Bft) W-NW 292 3,3 C 6,0 C 0,0 km/h (0 Bft)
17.10.2018 02:04 6,1 C 0,7 C 12,4 C 83 % 1023,3 hPa 0,0 l/m 0,0 km/h (0 Bft) N 360 3,4 C 6,1 C 0,0 km/h (0 Bft)
17.10.2018 02:02 6,1 C 0,7 C 12,4 C 83 % 1023,3 hPa 0,0 l/m 0,0 km/h (0 Bft) W 270 3,4 C 6,1 C 0,0 km/h (0 Bft)
17.10.2018 02:00 6,0 C 0,6 C 12,4 C 83 % 1023,3 hPa 0,0 l/m 0,0 km/h (0 Bft) SO 135 3,3 C 6,0 C 0,0 km/h (0 Bft)
17.10.2018 01:58 6,0 C 0,4 C 12,4 C 83 % 1023,3 hPa 0,0 l/m 0,0 km/h (0 Bft) W 270 3,3 C 6,0 C 0,0 km/h (0 Bft)
17.10.2018 01:56 6,0 C 0,6 C 12,5 C 83 % 1023,3 hPa 0,0 l/m 0,0 km/h (0 Bft) NO 45 3,3 C 6,0 C 0,0 km/h (0 Bft)
17.10.2018 01:54 6,1 C 0,7 C 12,5 C 83 % 1023,3 hPa 0,0 l/m 0,0 km/h (0 Bft) S-SO 157 3,4 C 6,1 C 0,0 km/h (0 Bft)
17.10.2018 01:52 6,1 C 0,6 C 12,5 C 83 % 1023,3 hPa 0,0 l/m 0,0 km/h (0 Bft) S-SO 157 3,4 C 6,1 C 0,0 km/h (0 Bft)
17.10.2018 01:50 6,2 C 0,4 C 12,5 C 83 % 1022,9 hPa 0,0 l/m 0,0 km/h (0 Bft) S-SO 157 3,5 C 6,2 C 0,0 km/h (0 Bft)
17.10.2018 01:48 6,1 C 0,4 C 12,5 C 83 % 1022,9 hPa 0,0 l/m 0,0 km/h (0 Bft) N 360 3,4 C 6,1 C 0,0 km/h (0 Bft)
17.10.2018 01:46 6,2 C 0,6 C 12,5 C 83 % 1022,9 hPa 0,0 l/m 0,0 km/h (0 Bft) S-SO 157 3,5 C 6,2 C 0,0 km/h (0 Bft)
17.10.2018 01:44 6,4 C 0,6 C 12,5 C 83 % 1022,9 hPa 0,0 l/m 0,0 km/h (0 Bft) S-SO 157 3,7 C 6,4 C 0,0 km/h (0 Bft)
17.10.2018 01:42 6,5 C 0,7 C 12,5 C 83 % 1022,9 hPa 0,0 l/m 0,0 km/h (0 Bft) SO 135 3,8 C 6,5 C 0,0 km/h (0 Bft)
17.10.2018 01:40 6,3 C 0,7 C 12,5 C 83 % 1022,9 hPa 0,0 l/m 0,0 km/h (0 Bft) O-SO 112 3,6 C 6,3 C 0,0 km/h (0 Bft)
17.10.2018 01:38 6,4 C 0,8 C 12,5 C 82 % 1022,9 hPa 0,0 l/m 0,0 km/h (0 Bft) N-NO 22 3,6 C 6,4 C 0,0 km/h (0 Bft)
17.10.2018 01:36 6,3 C 0,9 C 12,5 C 82 % 1022,9 hPa 0,0 l/m 0,0 km/h (0 Bft) SO 135 3,5 C 6,3 C 0,0 km/h (0 Bft)
17.10.2018 01:34 6,3 C 1,1 C 12,6 C 82 % 1022,9 hPa 0,0 l/m 0,0 km/h (0 Bft) O-NO 67 3,5 C 6,3 C 0,0 km/h (0 Bft)
17.10.2018 01:32 6,3 C 1,3 C 12,6 C 82 % 1022,9 hPa 0,0 l/m 0,2 km/h (0 Bft) S-SO 157 3,5 C 6,3 C 0,0 km/h (0 Bft)
17.10.2018 01:30 6,6 C 1,5 C 12,6 C 82 % 1023,1 hPa 0,0 l/m 0,2 km/h (0 Bft) NO 45 3,8 C 6,6 C 0,0 km/h (0 Bft)
17.10.2018 01:28 6,6 C 1,9 C 12,6 C 82 % 1023,1 hPa 0,0 l/m 0,2 km/h (0 Bft) N-NW 337 3,8 C 6,6 C 0,0 km/h (0 Bft)
17.10.2018 01:26 6,7 C 0,9 C 12,6 C 82 % 1023,1 hPa 0,0 l/m 0,2 km/h (0 Bft) N-NO 22 3,8 C 6,7 C 0,0 km/h (0 Bft)
17.10.2018 01:24 6,7 C 0,9 C 12,6 C 82 % 1023,1 hPa 0,0 l/m 0,2 km/h (0 Bft) S-SO 157 3,8 C 6,7 C 2,3 km/h (1 Bft)
17.10.2018 01:22 6,5 C 0,7 C 12,6 C 82 % 1023,1 hPa 0,0 l/m 0,2 km/h (0 Bft) SO 135 3,7 C 6,5 C 2,3 km/h (1 Bft)
17.10.2018 01:20 6,6 C 0,8 C 12,6 C 82 % 1023,1 hPa 0,0 l/m 0,0 km/h (0 Bft) SO 135 3,8 C 6,6 C 0,0 km/h (0 Bft)
17.10.2018 01:18 6,5 C 0,9 C 12,6 C 82 % 1023,1 hPa 0,0 l/m 0,0 km/h (0 Bft) SO 135 3,7 C 6,5 C 0,0 km/h (0 Bft)
17.10.2018 01:16 6,5 C 1,1 C 12,6 C 82 % 1023,1 hPa 0,0 l/m 0,0 km/h (0 Bft) O-SO 112 3,7 C 6,5 C 0,0 km/h (0 Bft)
17.10.2018 01:14 6,6 C 1,2 C 12,6 C 82 % 1023,1 hPa 0,0 l/m 0,0 km/h (0 Bft) O-NO 67 3,8 C 6,6 C 0,0 km/h (0 Bft)
17.10.2018 01:12 6,6 C 1,1 C 12,6 C 82 % 1023,1 hPa 0,0 l/m 0,2 km/h (0 Bft) SO 135 3,8 C 6,6 C 0,0 km/h (0 Bft)
17.10.2018 01:10 6,7 C 1,2 C 12,7 C 82 % 1023,1 hPa 0,0 l/m 0,2 km/h (0 Bft) NO 45 3,8 C 6,7 C 0,0 km/h (0 Bft)
17.10.2018 01:08 6,8 C 1,4 C 12,7 C 82 % 1023,1 hPa 0,0 l/m 0,2 km/h (0 Bft) N-NO 22 3,9 C 6,8 C 0,0 km/h (0 Bft)
17.10.2018 01:06 6,7 C 1,4 C 12,7 C 82 % 1023,1 hPa 0,0 l/m 0,2 km/h (0 Bft) N-NO 22 3,8 C 6,7 C 2,3 km/h (1 Bft)
17.10.2018 01:04 6,5 C 1,4 C 12,7 C 82 % 1023,1 hPa 0,0 l/m 0,2 km/h (0 Bft) S-SO 157 3,7 C 6,5 C 0,0 km/h (0 Bft)
17.10.2018 01:02 6,5 C 1,7 C 12,7 C 82 % 1023,1 hPa 0,0 l/m 0,2 km/h (0 Bft) W-NW 292 3,7 C 6,5 C 0,0 km/h (0 Bft)
17.10.2018 01:00 6,6 C 1,9 C 12,7 C 82 % 1023,1 hPa 0,0 l/m 0,0 km/h (0 Bft) W 270 3,8 C 6,6 C 0,0 km/h (0 Bft)
17.10.2018 00:58 6,7 C 2,2 C 12,7 C 82 % 1023,1 hPa 0,0 l/m 0,0 km/h (0 Bft) SO 135 3,8 C 6,7 C 0,0 km/h (0 Bft)
17.10.2018 00:56 6,7 C 2,0 C 12,7 C 82 % 1023,1 hPa 0,0 l/m 0,0 km/h (0 Bft) N 360 3,8 C 6,7 C 0,0 km/h (0 Bft)
17.10.2018 00:54 7,0 C 1,9 C 12,7 C 81 % 1023,1 hPa 0,0 l/m 0,0 km/h (0 Bft) S-SW 202 4,0 C 7,0 C 0,0 km/h (0 Bft)
17.10.2018 00:52 6,8 C 1,8 C 12,7 C 81 % 1023,1 hPa 0,0 l/m 0,0 km/h (0 Bft) NW 315 3,8 C 6,8 C 0,0 km/h (0 Bft)
17.10.2018 00:50 6,9 C 1,8 C 12,7 C 82 % 1023,0 hPa 0,0 l/m 0,0 km/h (0 Bft) S-SO 157 4,0 C 6,9 C 0,0 km/h (0 Bft)
17.10.2018 00:48 7,2 C 1,9 C 12,7 C 81 % 1023,0 hPa 0,0 l/m 0,0 km/h (0 Bft) N-NO 22 4,2 C 7,2 C 0,0 km/h (0 Bft)
17.10.2018 00:46 7,1 C 1,9 C 12,8 C 81 % 1023,0 hPa 0,0 l/m 0,0 km/h (0 Bft) S-SO 157 4,1 C 7,1 C 0,0 km/h (0 Bft)
17.10.2018 00:44 7,1 C 1,9 C 12,8 C 81 % 1023,0 hPa 0,0 l/m 0,0 km/h (0 Bft) N-NO 22 4,1 C 7,1 C 0,0 km/h (0 Bft)
17.10.2018 00:42 7,0 C 2,3 C 12,8 C 81 % 1023,0 hPa 0,0 l/m 0,0 km/h (0 Bft) SO 135 4,0 C 7,0 C 0,0 km/h (0 Bft)
17.10.2018 00:40 6,9 C 1,9 C 12,8 C 81 % 1023,0 hPa 0,0 l/m 0,0 km/h (0 Bft) S 180 3,9 C 6,9 C 2,1 km/h (1 Bft)
17.10.2018 00:38 7,0 C 1,4 C 12,8 C 81 % 1023,0 hPa 0,0 l/m 0,0 km/h (0 Bft) N-NO 22 4,0 C 7,0 C 2,1 km/h (1 Bft)
17.10.2018 00:36 6,9 C 1,4 C 12,8 C 81 % 1023,0 hPa 0,0 l/m 0,0 km/h (0 Bft) SO 135 3,9 C 6,9 C 0,0 km/h (0 Bft)
17.10.2018 00:34 6,8 C 1,4 C 12,8 C 81 % 1023,0 hPa 0,0 l/m 0,0 km/h (0 Bft) SO 135 3,8 C 6,8 C 0,0 km/h (0 Bft)
17.10.2018 00:32 6,9 C 1,5 C 12,8 C 81 % 1023,0 hPa 0,0 l/m 0,0 km/h (0 Bft) SO 135 3,9 C 6,9 C 0,0 km/h (0 Bft)
17.10.2018 00:30 6,9 C 1,3 C 12,8 C 81 % 1023,1 hPa 0,0 l/m 0,0 km/h (0 Bft) S-SW 202 3,9 C 6,9 C 0,0 km/h (0 Bft)
17.10.2018 00:28 6,9 C 1,2 C 12,8 C 81 % 1023,1 hPa 0,0 l/m 0,0 km/h (0 Bft) O 90 3,9 C 6,9 C 0,0 km/h (0 Bft)
17.10.2018 00:26 6,9 C 1,3 C 12,8 C 81 % 1023,1 hPa 0,0 l/m 0,0 km/h (0 Bft) S-SW 202 3,9 C 6,9 C 0,0 km/h (0 Bft)
17.10.2018 00:24 7,0 C 1,3 C 12,9 C 80 % 1023,1 hPa 0,0 l/m 0,0 km/h (0 Bft) SO 135 3,8 C 7,0 C 0,0 km/h (0 Bft)
17.10.2018 00:22 7,1 C 1,3 C 12,9 C 80 % 1023,1 hPa 0,0 l/m 0,0 km/h (0 Bft) SO 135 3,9 C 7,1 C 0,0 km/h (0 Bft)
17.10.2018 00:20 6,9 C 1,4 C 12,9 C 80 % 1023,1 hPa 0,0 l/m 0,0 km/h (0 Bft) S-SW 202 3,7 C 6,9 C 0,0 km/h (0 Bft)
17.10.2018 00:18 6,8 C 1,5 C 12,9 C 80 % 1023,1 hPa 0,0 l/m 0,0 km/h (0 Bft) SO 135 3,6 C 6,8 C 0,0 km/h (0 Bft)
17.10.2018 00:16 6,9 C 1,8 C 12,9 C 80 % 1023,1 hPa 0,0 l/m 0,0 km/h (0 Bft) N 360 3,7 C 6,9 C 0,0 km/h (0 Bft)
17.10.2018 00:14 6,9 C 1,9 C 12,9 C 80 % 1023,1 hPa 0,0 l/m 0,0 km/h (0 Bft) S-SO 157 3,7 C 6,9 C 0,0 km/h (0 Bft)
17.10.2018 00:12 7,0 C 2,0 C 12,9 C 80 % 1023,1 hPa 0,0 l/m 0,0 km/h (0 Bft) SW 225 3,8 C 7,0 C 0,0 km/h (0 Bft)
17.10.2018 00:10 7,2 C 1,6 C 13,0 C 80 % 1023,2 hPa 0,0 l/m 0,0 km/h (0 Bft) O-NO 67 4,0 C 7,2 C 0,0 km/h (0 Bft)
17.10.2018 00:08 7,2 C 1,6 C 13,0 C 80 % 1023,2 hPa 0,0 l/m 0,0 km/h (0 Bft) O-NO 67 4,0 C 7,2 C 0,0 km/h (0 Bft)
17.10.2018 00:06 7,2 C 1,6 C 13,0 C 80 % 1023,2 hPa 0,0 l/m 0,0 km/h (0 Bft) O-NO 67 4,0 C 7,2 C 0,0 km/h (0 Bft)
17.10.2018 00:04 7,2 C 1,6 C 13,0 C 80 % 1023,2 hPa 0,0 l/m 0,0 km/h (0 Bft) O-NO 67 4,0 C 7,2 C 0,0 km/h (0 Bft)
17.10.2018 00:02 7,2 C 1,6 C 13,0 C 80 % 1023,2 hPa 0,0 l/m 0,0 km/h (0 Bft) O-NO 67 4,0 C 7,2 C 0,0 km/h (0 Bft)
17.10.2018 00:00 7,2 C 1,6 C 13,0 C 80 % 1023,2 hPa 0,0 l/m 0,0 km/h (0 Bft) O-NO 67 4,0 C 7,2 C 0,0 km/h (0 Bft)
_ Min-Zeit 05:56 05:44 08:24 13:40 15:52 - 00:00 - - 05:56 05:56 00:00
Minimum _ 4,2 C -0,2 C 11,1 C 53 % 1021,6 hPa - 0,0 km/h (0 Bft) - - 2,4 C 4,2 C 0,0 km/h (0 Bft)
_ Max-Zeit 13:46 13:52 15:34 06:38 01:52 00:00 15:34 - - 10:46 13:30 15:36
Maximum _ 19,1 C 24,4 C 13,4 C 89 % 1023,3 hPa 0,0 l/m 11,4 km/h
O-NO (2 Bft)
- - 10,9 C 18,9 C 30,9 km/h
O-NO (5 Bft)
Durchschnitt _ 10,0 C 8,4 C 12,1 C 77 % 1022,7 hPa #0,0 l/m 1,7 km/h (1 Bft) O-NO - 5,8 C 9,9 C 3,5 km/h (1 Bft)